Wetterdaten: Samstag, 09.04.2022
Datum Zeit Temp. Aussen Temp. o. S. Temp +5cm Feuchte Auss Luftdruck Regen Sonnenschein Regendauer Solar Windben Empfang
09.04.2022 00:00 5,5 C 4,4 C 1,1 C 80 % 1001,1 hPa 0,0 l/m 0 min 0 min 0 W/m 6,4 km/h (2 Bft) 100,00 %
09.04.2022 00:02 5,4 C 4,4 C 1,1 C 80 % 1001,2 hPa 0,0 l/m 0 min 0 min 0 W/m 9,7 km/h (2 Bft) 96,88 %
09.04.2022 00:04 5,4 C 4,4 C 1,1 C 81 % 1001,3 hPa 0,0 l/m 0 min 0 min 0 W/m 6,4 km/h (2 Bft) 100,00 %
09.04.2022 00:08 5,3 C 4,4 C 1,1 C 81 % 1001,3 hPa 0,0 l/m 0 min 0 min 0 W/m 12,9 km/h (3 Bft) 98,94 %
09.04.2022 00:10 5,3 C 4,4 C 1,1 C 81 % 1001,3 hPa 0,0 l/m 0 min 0 min 0 W/m 9,7 km/h (2 Bft) 97,87 %
09.04.2022 00:12 5,2 C 4,4 C 1,1 C 82 % 1001,4 hPa 0,0 l/m 0 min 0 min 0 W/m 6,4 km/h (2 Bft) 100,00 %
09.04.2022 00:14 5,2 C 4,4 C 1,1 C 82 % 1001,4 hPa 0,0 l/m 0 min 0 min 0 W/m 6,4 km/h (2 Bft) 100,00 %
09.04.2022 00:16 5,2 C 4,4 C 1,1 C 82 % 1001,4 hPa 0,0 l/m 0 min 0 min 0 W/m 6,4 km/h (2 Bft) 100,00 %
09.04.2022 00:18 5,2 C 4,4 C 1,1 C 82 % 1001,4 hPa 0,0 l/m 0 min 0 min 0 W/m 6,4 km/h (2 Bft) 100,00 %
09.04.2022 00:20 5,1 C 4,4 C 1,1 C 82 % 1001,5 hPa 0,0 l/m 0 min 0 min 0 W/m 6,4 km/h (2 Bft) 97,87 %
09.04.2022 00:22 5,1 C 3,9 C 1,1 C 82 % 1001,6 hPa 0,0 l/m 0 min 0 min 0 W/m 9,7 km/h (2 Bft) 100,00 %
09.04.2022 00:24 5,1 C 3,9 C 1,1 C 83 % 1001,6 hPa 0,0 l/m 0 min 0 min 0 W/m 6,4 km/h (2 Bft) 97,83 %
09.04.2022 00:26 5,0 C 3,9 C 1,1 C 83 % 1001,7 hPa 0,0 l/m 0 min 0 min 0 W/m 6,4 km/h (2 Bft) 97,87 %
09.04.2022 00:28 4,9 C 3,9 C 1,1 C 83 % 1001,7 hPa 0,0 l/m 0 min 0 min 0 W/m 9,7 km/h (2 Bft) 97,87 %
09.04.2022 00:30 4,9 C 3,9 C 1,1 C 83 % 1001,8 hPa 0,0 l/m 0 min 0 min 0 W/m 9,7 km/h (2 Bft) 97,87 %
09.04.2022 00:32 4,8 C 3,9 C 0,6 C 83 % 1001,8 hPa 0,0 l/m 0 min 0 min 0 W/m 6,4 km/h (2 Bft) 95,74 %
09.04.2022 00:34 4,8 C 3,9 C 0,6 C 83 % 1001,9 hPa 0,0 l/m 0 min 0 min 0 W/m 9,7 km/h (2 Bft) 95,74 %
09.04.2022 00:36 4,8 C 3,9 C 0,6 C 83 % 1001,9 hPa 0,0 l/m 0 min 0 min 0 W/m 9,7 km/h (2 Bft) 97,83 %
09.04.2022 00:38 4,7 C 3,9 C 0,6 C 83 % 1002,0 hPa 0,0 l/m 0 min 0 min 0 W/m 12,9 km/h (3 Bft) 97,87 %
09.04.2022 00:40 4,7 C 3,9 C 0,6 C 84 % 1002,0 hPa 0,0 l/m 0 min 0 min 0 W/m 9,7 km/h (2 Bft) 97,87 %
09.04.2022 00:42 4,6 C 3,9 C 0,6 C 84 % 1002,1 hPa 0,0 l/m 0 min 0 min 0 W/m 9,7 km/h (2 Bft) 95,74 %
09.04.2022 00:44 4,6 C 3,9 C 0,6 C 84 % 1002,1 hPa 0,0 l/m 0 min 0 min 0 W/m 9,7 km/h (2 Bft) 100,00 %
09.04.2022 00:46 4,6 C 3,9 C 0,6 C 84 % 1002,1 hPa 0,0 l/m 0 min 0 min 0 W/m 9,7 km/h (2 Bft) 97,87 %
09.04.2022 00:48 4,6 C 3,9 C 0,6 C 84 % 1002,1 hPa 0,0 l/m 0 min 0 min 0 W/m 3,2 km/h (1 Bft) 95,65 %
09.04.2022 00:50 4,6 C 3,9 C 0,6 C 84 % 1002,2 hPa 0,0 l/m 0 min 0 min 0 W/m 9,7 km/h (2 Bft) 97,87 %
09.04.2022 00:52 4,5 C 3,9 C 0,6 C 85 % 1002,2 hPa 0,0 l/m 0 min 0 min 0 W/m 6,4 km/h (2 Bft) 97,87 %
09.04.2022 00:54 4,5 C 3,9 C 0,6 C 85 % 1002,3 hPa 0,0 l/m 0 min 0 min 0 W/m 12,9 km/h (3 Bft) 95,74 %
09.04.2022 00:56 4,5 C 3,9 C 0,6 C 85 % 1002,3 hPa 0,0 l/m 0 min 0 min 0 W/m 6,4 km/h (2 Bft) 93,62 %
09.04.2022 00:58 4,4 C 3,9 C 0,6 C 85 % 1002,3 hPa 0,0 l/m 0 min 0 min 0 W/m 9,7 km/h (2 Bft) 93,62 %
09.04.2022 01:00 4,4 C 3,9 C 0,6 C 85 % 1002,3 hPa 0,0 l/m 0 min 0 min 0 W/m 6,4 km/h (2 Bft) 95,65 %
09.04.2022 01:02 4,4 C 3,3 C 0,6 C 85 % 1002,3 hPa 0,0 l/m 0 min 0 min 0 W/m 12,9 km/h (3 Bft) 95,74 %
09.04.2022 01:04 4,4 C 3,3 C 0,6 C 85 % 1002,4 hPa 0,0 l/m 0 min 0 min 0 W/m 9,7 km/h (2 Bft) 97,87 %
09.04.2022 01:06 4,3 C 3,3 C 0,6 C 85 % 1002,5 hPa 0,0 l/m 0 min 0 min 0 W/m 9,7 km/h (2 Bft) 97,87 %
09.04.2022 01:08 4,3 C 3,3 C 0,6 C 85 % 1002,5 hPa 0,0 l/m 0 min 0 min 0 W/m 9,7 km/h (2 Bft) 96,55 %
09.04.2022 01:10 4,3 C 3,3 C 0,6 C 86 % 1002,6 hPa 0,0 l/m 0 min 0 min 0 W/m 12,9 km/h (3 Bft) 94,29 %
09.04.2022 01:12 4,3 C 3,3 C 0,6 C 86 % 1002,7 hPa 0,0 l/m 0 min 0 min 0 W/m 12,9 km/h (3 Bft) 93,62 %
09.04.2022 01:14 4,3 C 3,3 C 0,6 C 86 % 1002,6 hPa 0,0 l/m 0 min 0 min 0 W/m 6,4 km/h (2 Bft) 93,62 %
09.04.2022 01:16 4,3 C 3,3 C 0,6 C 86 % 1002,6 hPa 0,0 l/m 0 min 0 min 0 W/m 9,7 km/h (2 Bft) 95,74 %
09.04.2022 01:18 4,3 C 3,3 C 0,6 C 86 % 1002,7 hPa 0,0 l/m 0 min 0 min 0 W/m 9,7 km/h (2 Bft) 95,74 %
09.04.2022 01:20 4,2 C 3,3 C 0,6 C 86 % 1002,7 hPa 0,0 l/m 0 min 0 min 0 W/m 6,4 km/h (2 Bft) 95,74 %
09.04.2022 01:22 4,2 C 3,3 C 0,6 C 86 % 1002,8 hPa 0,0 l/m 0 min 0 min 0 W/m 9,7 km/h (2 Bft) 95,74 %
09.04.2022 01:24 4,2 C 3,3 C 0,6 C 86 % 1002,8 hPa 0,0 l/m 0 min 0 min 0 W/m 6,4 km/h (2 Bft) 97,83 %
09.04.2022 01:26 4,2 C 3,3 C 0,6 C 86 % 1002,8 hPa 0,0 l/m 0 min 0 min 0 W/m 9,7 km/h (2 Bft) 95,74 %
09.04.2022 01:28 4,2 C 3,3 C 0,6 C 86 % 1002,8 hPa 0,0 l/m 0 min 0 min 0 W/m 6,4 km/h (2 Bft) 97,87 %
09.04.2022 01:30 4,1 C 3,3 C 0,6 C 87 % 1002,9 hPa 0,0 l/m 0 min 0 min 0 W/m 12,9 km/h (3 Bft) 95,74 %
09.04.2022 01:32 4,1 C 3,3 C 0,6 C 87 % 1002,9 hPa 0,0 l/m 0 min 0 min 0 W/m 6,4 km/h (2 Bft) 91,49 %
09.04.2022 01:34 4,1 C 3,3 C 0,6 C 87 % 1002,9 hPa 0,0 l/m 0 min 0 min 0 W/m 9,7 km/h (2 Bft) 93,48 %
09.04.2022 01:36 4,1 C 3,3 C 0,6 C 87 % 1003,0 hPa 0,0 l/m 0 min 0 min 0 W/m 9,7 km/h (2 Bft) 95,74 %
09.04.2022 01:38 4,1 C 3,3 C 0,6 C 87 % 1003,0 hPa 0,0 l/m 0 min 0 min 0 W/m 16,1 km/h (3 Bft) 95,74 %
09.04.2022 01:40 4,1 C 3,3 C 0,6 C 87 % 1003,0 hPa 0,0 l/m 0 min 0 min 0 W/m 9,7 km/h (2 Bft) 97,87 %
09.04.2022 01:42 4,1 C 3,3 C 0,6 C 87 % 1003,1 hPa 0,0 l/m 0 min 0 min 0 W/m 6,4 km/h (2 Bft) 50,00 %
09.04.2022 01:44 4,1 C 3,3 C 0,6 C 87 % 1003,1 hPa 0,0 l/m 0 min 0 min 0 W/m 12,9 km/h (3 Bft) 95,74 %
09.04.2022 01:46 4,1 C 3,3 C 0,6 C 87 % 1003,2 hPa 0,0 l/m 0 min 0 min 0 W/m 12,9 km/h (3 Bft) 97,83 %
09.04.2022 01:48 4,1 C 3,3 C 0,6 C 87 % 1003,2 hPa 0,0 l/m 0 min 0 min 0 W/m 9,7 km/h (2 Bft) 93,62 %
09.04.2022 01:50 4,1 C 3,3 C 0,6 C 87 % 1003,2 hPa 0,0 l/m 0 min 0 min 0 W/m 9,7 km/h (2 Bft) 97,87 %
09.04.2022 01:52 4,1 C 3,3 C 0,6 C 87 % 1003,3 hPa 0,0 l/m 0 min 0 min 0 W/m 12,9 km/h (3 Bft) 97,87 %
09.04.2022 01:54 4,1 C 3,3 C 0,6 C 87 % 1003,3 hPa 0,0 l/m 0 min 0 min 0 W/m 9,7 km/h (2 Bft) 97,87 %
09.04.2022 01:56 4,1 C 3,3 C 0,6 C 87 % 1003,4 hPa 0,0 l/m 0 min 0 min 0 W/m 9,7 km/h (2 Bft) 97,87 %
09.04.2022 01:58 4,1 C 3,3 C 0,6 C 87 % 1003,4 hPa 0,0 l/m 0 min 0 min 0 W/m 6,4 km/h (2 Bft) 97,83 %
09.04.2022 02:00 4,1 C 3,3 C 0,6 C 87 % 1003,5 hPa 0,0 l/m 0 min 0 min 0 W/m 9,7 km/h (2 Bft) 95,74 %
09.04.2022 02:02 4,1 C 3,3 C 0,6 C 87 % 1003,5 hPa 0,0 l/m 0 min 0 min 0 W/m 9,7 km/h (2 Bft) 100,00 %
09.04.2022 02:04 4,1 C 3,3 C 0,6 C 88 % 1003,6 hPa 0,0 l/m 0 min 0 min 0 W/m 9,7 km/h (2 Bft) 100,00 %
09.04.2022 02:06 4,1 C 3,3 C 0,6 C 88 % 1003,7 hPa 0,0 l/m 0 min 0 min 0 W/m 6,4 km/h (2 Bft) 97,87 %
09.04.2022 02:08 4,1 C 3,3 C 0,6 C 88 % 1003,7 hPa 0,0 l/m 0 min 0 min 0 W/m 9,7 km/h (2 Bft) 97,87 %
09.04.2022 02:10 4,0 C 3,3 C 0,6 C 88 % 1003,7 hPa 0,0 l/m 0 min 0 min 0 W/m 6,4 km/h (2 Bft) 100,00 %
09.04.2022 02:12 4,0 C 3,3 C 0,6 C 88 % 1003,8 hPa 0,0 l/m 0 min 0 min 0 W/m 12,9 km/h (3 Bft) 100,00 %
09.04.2022 02:14 3,9 C 3,3 C 0,6 C 88 % 1003,8 hPa 0,0 l/m 0 min 0 min 0 W/m 12,9 km/h (3 Bft) 100,00 %
09.04.2022 02:16 3,9 C 3,3 C 0,6 C 88 % 1003,9 hPa 0,0 l/m 0 min 0 min 0 W/m 6,4 km/h (2 Bft) 100,00 %
09.04.2022 02:18 3,9 C 3,3 C 0,6 C 88 % 1003,9 hPa 0,0 l/m 0 min 0 min 0 W/m 12,9 km/h (3 Bft) 97,87 %
09.04.2022 02:20 3,9 C 3,3 C 0,6 C 88 % 1003,9 hPa 0,0 l/m 0 min 0 min 0 W/m 12,9 km/h (3 Bft) 100,00 %
09.04.2022 02:22 3,9 C 3,3 C 0,0 C 88 % 1003,9 hPa 0,0 l/m 0 min 0 min 0 W/m 6,4 km/h (2 Bft) 100,00 %
09.04.2022 02:24 3,9 C 3,3 C 0,0 C 88 % 1004,0 hPa 0,0 l/m 0 min 0 min 0 W/m 12,9 km/h (3 Bft) 100,00 %
09.04.2022 02:26 3,9 C 3,3 C 0,6 C 88 % 1004,1 hPa 0,0 l/m 0 min 0 min 0 W/m 12,9 km/h (3 Bft) 100,00 %
09.04.2022 02:28 3,8 C 3,3 C 0,6 C 88 % 1004,0 hPa 0,0 l/m 0 min 0 min 0 W/m 6,4 km/h (2 Bft) 97,87 %
09.04.2022 02:30 3,8 C 3,3 C 0,6 C 89 % 1004,0 hPa 0,0 l/m 0 min 0 min 0 W/m 12,9 km/h (3 Bft) 100,00 %
09.04.2022 02:32 3,8 C 3,3 C 0,6 C 89 % 1004,1 hPa 0,0 l/m 0 min 0 min 0 W/m 9,7 km/h (2 Bft) 100,00 %
09.04.2022 02:34 3,8 C 3,3 C 0,6 C 89 % 1004,2 hPa 0,0 l/m 0 min 0 min 0 W/m 12,9 km/h (3 Bft) 100,00 %
09.04.2022 02:36 3,8 C 3,3 C 0,6 C 89 % 1004,2 hPa 0,0 l/m 0 min 0 min 0 W/m 12,9 km/h (3 Bft) 91,49 %
09.04.2022 02:38 3,8 C 3,3 C 0,6 C 89 % 1004,3 hPa 0,0 l/m 0 min 0 min 0 W/m 9,7 km/h (2 Bft) 68,00 %
09.04.2022 02:40 3,8 C 3,3 C 0,6 C 89 % 1004,3 hPa 0,0 l/m 0 min 0 min 0 W/m 9,7 km/h (2 Bft) 100,00 %
09.04.2022 02:42 3,8 C 3,3 C 0,6 C 89 % 1004,4 hPa 0,0 l/m 0 min 0 min 0 W/m 9,7 km/h (2 Bft) 97,87 %
09.04.2022 02:44 3,8 C 3,3 C 0,6 C 89 % 1004,4 hPa 0,0 l/m 0 min 0 min 0 W/m 9,7 km/h (2 Bft) 100,00 %
09.04.2022 02:46 3,8 C 3,3 C 0,6 C 89 % 1004,4 hPa 0,0 l/m 0 min 0 min 0 W/m 12,9 km/h (3 Bft) 97,87 %
09.04.2022 02:48 3,8 C 3,3 C 0,0 C 89 % 1004,3 hPa 0,0 l/m 0 min 0 min 0 W/m 12,9 km/h (3 Bft) 95,74 %
09.04.2022 02:50 3,8 C 3,3 C 0,0 C 89 % 1004,4 hPa 0,0 l/m 0 min 0 min 0 W/m 12,9 km/h (3 Bft) 93,62 %
09.04.2022 02:52 3,8 C 3,3 C 0,6 C 89 % 1004,5 hPa 0,0 l/m 0 min 0 min 0 W/m 9,7 km/h (2 Bft) 95,74 %
09.04.2022 02:54 3,8 C 3,3 C 0,6 C 89 % 1004,6 hPa 0,0 l/m 0 min 0 min 0 W/m 12,9 km/h (3 Bft) 95,74 %
09.04.2022 02:56 3,8 C 3,3 C 0,6 C 89 % 1004,6 hPa 0,0 l/m 0 min 0 min 0 W/m 12,9 km/h (3 Bft) 95,65 %
09.04.2022 02:58 3,8 C 3,3 C 0,6 C 89 % 1004,7 hPa 0,0 l/m 0 min 0 min 0 W/m 16,1 km/h (3 Bft) 95,74 %
09.04.2022 03:00 3,8 C 3,3 C 0,6 C 89 % 1004,7 hPa 0,0 l/m 0 min 0 min 0 W/m 12,9 km/h (3 Bft) 95,74 %
09.04.2022 03:02 3,8 C 3,3 C 0,6 C 89 % 1004,7 hPa 0,0 l/m 0 min 0 min 0 W/m 9,7 km/h (2 Bft) 95,74 %
09.04.2022 03:04 3,9 C 3,3 C 0,6 C 89 % 1004,7 hPa 0,0 l/m 0 min 0 min 0 W/m 12,9 km/h (3 Bft) 95,74 %
09.04.2022 03:06 3,9 C 3,3 C 0,6 C 89 % 1004,8 hPa 0,0 l/m 0 min 0 min 0 W/m 9,7 km/h (2 Bft) 95,74 %
09.04.2022 03:08 3,9 C 3,3 C 0,6 C 89 % 1004,8 hPa 0,0 l/m 0 min 0 min 0 W/m 16,1 km/h (3 Bft) 94,83 %
09.04.2022 03:10 3,9 C 3,3 C 0,6 C 89 % 1004,9 hPa 0,0 l/m 0 min 0 min 0 W/m 9,7 km/h (2 Bft) 94,29 %
09.04.2022 03:12 3,9 C 3,3 C 0,6 C 89 % 1004,9 hPa 0,0 l/m 0 min 0 min 0 W/m 9,7 km/h (2 Bft) 93,62 %
09.04.2022 03:14 3,9 C 3,3 C 0,6 C 89 % 1004,9 hPa 0,0 l/m 0 min 0 min 0 W/m 6,4 km/h (2 Bft) 95,74 %
09.04.2022 03:16 3,8 C 3,3 C 0,6 C 89 % 1005,0 hPa 0,0 l/m 0 min 0 min 0 W/m 12,9 km/h (3 Bft) 97,87 %
09.04.2022 03:18 3,9 C 3,3 C 0,6 C 89 % 1005,0 hPa 0,0 l/m 0 min 0 min 0 W/m 12,9 km/h (3 Bft) 95,65 %
09.04.2022 03:20 3,9 C 3,3 C 0,6 C 89 % 1005,0 hPa 0,0 l/m 0 min 0 min 0 W/m 12,9 km/h (3 Bft) 97,87 %
09.04.2022 03:22 3,8 C 3,3 C 0,6 C 89 % 1005,1 hPa 0,0 l/m 0 min 0 min 0 W/m 12,9 km/h (3 Bft) 95,74 %
09.04.2022 03:24 3,8 C 3,3 C 0,6 C 89 % 1005,1 hPa 0,0 l/m 0 min 0 min 0 W/m 12,9 km/h (3 Bft) 97,87 %
09.04.2022 03:26 3,8 C 3,3 C 0,6 C 89 % 1005,2 hPa 0,0 l/m 0 min 0 min 0 W/m 12,9 km/h (3 Bft) 100,00 %
09.04.2022 03:28 3,8 C 3,3 C 0,6 C 89 % 1005,2 hPa 0,0 l/m 0 min 0 min 0 W/m 16,1 km/h (3 Bft) 97,87 %
09.04.2022 03:30 3,9 C 3,3 C 0,6 C 89 % 1005,2 hPa 0,0 l/m 0 min 0 min 0 W/m 6,4 km/h (2 Bft) 97,83 %
09.04.2022 03:32 3,9 C 3,3 C 0,6 C 89 % 1005,2 hPa 0,0 l/m 0 min 0 min 0 W/m 16,1 km/h (3 Bft) 100,00 %
09.04.2022 03:34 3,9 C 3,3 C 0,6 C 89 % 1005,3 hPa 0,0 l/m 0 min 0 min 0 W/m 19,3 km/h (3 Bft) 100,00 %
09.04.2022 03:36 3,9 C 3,3 C 0,6 C 89 % 1005,3 hPa 0,0 l/m 0 min 0 min 0 W/m 12,9 km/h (3 Bft) 97,87 %
09.04.2022 03:38 3,9 C 3,3 C 0,6 C 89 % 1005,4 hPa 0,0 l/m 0 min 0 min 0 W/m 12,9 km/h (3 Bft) 98,28 %
09.04.2022 03:40 3,9 C 3,3 C 0,6 C 89 % 1005,4 hPa 0,0 l/m 0 min 0 min 0 W/m 12,9 km/h (3 Bft) 100,00 %
09.04.2022 03:42 3,9 C 3,3 C 0,6 C 89 % 1005,5 hPa 0,0 l/m 0 min 0 min 0 W/m 6,4 km/h (2 Bft) 97,83 %
09.04.2022 03:44 3,9 C 3,3 C 0,6 C 89 % 1005,5 hPa 0,0 l/m 0 min 0 min 0 W/m 12,9 km/h (3 Bft) 100,00 %
09.04.2022 03:46 3,8 C 3,3 C 0,6 C 89 % 1005,5 hPa 0,0 l/m 0 min 0 min 0 W/m 12,9 km/h (3 Bft) 100,00 %
09.04.2022 03:48 3,8 C 2,8 C 0,0 C 89 % 1005,6 hPa 0,0 l/m 0 min 0 min 0 W/m 12,9 km/h (3 Bft) 97,87 %
09.04.2022 03:50 3,8 C 2,8 C 0,0 C 89 % 1005,7 hPa 0,0 l/m 0 min 0 min 0 W/m 12,9 km/h (3 Bft) 100,00 %
09.04.2022 03:52 3,7 C 2,8 C 0,0 C 89 % 1005,7 hPa 0,0 l/m 0 min 0 min 0 W/m 12,9 km/h (3 Bft) 100,00 %
09.04.2022 03:54 3,7 C 2,8 C 0,0 C 89 % 1005,8 hPa 0,0 l/m 0 min 0 min 0 W/m 9,7 km/h (2 Bft) 100,00 %
09.04.2022 03:56 3,7 C 2,8 C 0,0 C 89 % 1005,8 hPa 0,0 l/m 0 min 0 min 0 W/m 12,9 km/h (3 Bft) 100,00 %
09.04.2022 03:58 3,7 C 2,8 C 0,0 C 89 % 1005,9 hPa 0,0 l/m 0 min 0 min 0 W/m 16,1 km/h (3 Bft) 100,00 %
09.04.2022 04:00 3,7 C 2,8 C 0,0 C 89 % 1005,9 hPa 0,0 l/m 0 min 0 min 0 W/m 6,4 km/h (2 Bft) 100,00 %
09.04.2022 04:02 3,6 C 2,8 C 0,0 C 89 % 1005,9 hPa 0,0 l/m 0 min 0 min 0 W/m 6,4 km/h (2 Bft) 100,00 %
09.04.2022 04:04 3,6 C 2,8 C 0,0 C 89 % 1005,9 hPa 0,0 l/m 0 min 0 min 0 W/m 9,7 km/h (2 Bft) 100,00 %
09.04.2022 04:06 3,6 C 2,8 C 0,0 C 89 % 1006,0 hPa 0,0 l/m 0 min 0 min 0 W/m 12,9 km/h (3 Bft) 100,00 %
09.04.2022 04:08 3,6 C 2,8 C 0,0 C 89 % 1005,9 hPa 0,0 l/m 0 min 0 min 0 W/m 12,9 km/h (3 Bft) 100,00 %
09.04.2022 04:10 3,6 C 2,8 C 0,0 C 89 % 1006,0 hPa 0,0 l/m 0 min 0 min 0 W/m 6,4 km/h (2 Bft) 100,00 %
09.04.2022 04:12 3,6 C 2,8 C 0,0 C 89 % 1005,9 hPa 0,0 l/m 0 min 0 min 0 W/m 9,7 km/h (2 Bft) 100,00 %
09.04.2022 04:14 3,6 C 2,8 C 0,0 C 89 % 1006,0 hPa 0,0 l/m 0 min 0 min 0 W/m 9,7 km/h (2 Bft) 100,00 %
09.04.2022 04:16 3,6 C 2,8 C 0,0 C 90 % 1006,0 hPa 0,0 l/m 0 min 0 min 0 W/m 6,4 km/h (2 Bft) 100,00 %
09.04.2022 04:18 3,6 C 2,8 C 0,0 C 90 % 1006,1 hPa 0,0 l/m 0 min 0 min 0 W/m 6,4 km/h (2 Bft) 100,00 %
09.04.2022 04:20 3,6 C 2,8 C 0,0 C 90 % 1006,1 hPa 0,0 l/m 0 min 0 min 0 W/m 6,4 km/h (2 Bft) 100,00 %
09.04.2022 04:22 3,6 C 2,8 C 0,0 C 90 % 1006,2 hPa 0,0 l/m 0 min 0 min 0 W/m 6,4 km/h (2 Bft) 100,00 %
09.04.2022 04:24 3,6 C 2,8 C 0,0 C 90 % 1006,2 hPa 0,0 l/m 0 min 0 min 0 W/m 12,9 km/h (3 Bft) 100,00 %
09.04.2022 04:26 3,6 C 2,8 C 0,0 C 90 % 1006,2 hPa 0,0 l/m 0 min 0 min 0 W/m 12,9 km/h (3 Bft) 97,83 %
09.04.2022 04:28 3,5 C 2,8 C 0,0 C 90 % 1006,3 hPa 0,0 l/m 0 min 0 min 0 W/m 12,9 km/h (3 Bft) 100,00 %
09.04.2022 04:30 3,5 C 2,8 C 0,0 C 90 % 1006,3 hPa 0,0 l/m 0 min 0 min 0 W/m 6,4 km/h (2 Bft) 95,74 %
09.04.2022 04:32 3,5 C 2,8 C 0,0 C 90 % 1006,3 hPa 0,0 l/m 0 min 0 min 0 W/m 12,9 km/h (3 Bft) 97,56 %
09.04.2022 04:34 3,5 C 2,8 C 0,0 C 90 % 1006,4 hPa 0,0 l/m 0 min 0 min 0 W/m 12,9 km/h (3 Bft) 92,86 %
09.04.2022 04:36 3,4 C 2,8 C 0,0 C 90 % 1006,4 hPa 0,0 l/m 0 min 0 min 0 W/m 12,9 km/h (3 Bft) 95,74 %
09.04.2022 04:38 3,4 C 2,8 C 0,0 C 90 % 1006,5 hPa 0,0 l/m 0 min 0 min 0 W/m 6,4 km/h (2 Bft) 94,74 %
09.04.2022 04:40 3,5 C 2,8 C 0,0 C 90 % 1006,5 hPa 0,0 l/m 0 min 0 min 0 W/m 6,4 km/h (2 Bft) 94,83 %
09.04.2022 04:42 3,5 C 2,8 C 0,0 C 90 % 1006,5 hPa 0,0 l/m 0 min 0 min 0 W/m 12,9 km/h (3 Bft) 95,74 %
09.04.2022 04:44 3,5 C 2,8 C 0,0 C 90 % 1006,6 hPa 0,0 l/m 0 min 0 min 0 W/m 6,4 km/h (2 Bft) 95,74 %
09.04.2022 04:46 3,5 C 2,8 C 0,0 C 90 % 1006,6 hPa 0,0 l/m 0 min 0 min 0 W/m 12,9 km/h (3 Bft) 95,74 %
09.04.2022 04:48 3,6 C 2,8 C 0,0 C 90 % 1006,6 hPa 0,0 l/m 0 min 0 min 0 W/m 12,9 km/h (3 Bft) 95,65 %
09.04.2022 04:50 3,5 C 2,8 C 0,0 C 90 % 1006,6 hPa 0,0 l/m 0 min 0 min 0 W/m 12,9 km/h (3 Bft) 95,74 %
09.04.2022 04:52 3,6 C 2,8 C 0,0 C 90 % 1006,7 hPa 0,0 l/m 0 min 0 min 0 W/m 9,7 km/h (2 Bft) 93,62 %
09.04.2022 04:54 3,5 C 2,8 C 0,0 C 90 % 1006,7 hPa 0,0 l/m 0 min 0 min 0 W/m 6,4 km/h (2 Bft) 93,62 %
09.04.2022 04:56 3,5 C 2,8 C 0,0 C 90 % 1006,8 hPa 0,0 l/m 0 min 0 min 0 W/m 12,9 km/h (3 Bft) 91,49 %
09.04.2022 04:58 3,5 C 2,8 C 0,0 C 90 % 1006,8 hPa 0,0 l/m 0 min 0 min 0 W/m 16,1 km/h (3 Bft) 95,74 %
09.04.2022 05:00 3,5 C 2,8 C 0,0 C 90 % 1006,9 hPa 0,0 l/m 0 min 0 min 0 W/m 6,4 km/h (2 Bft) 95,65 %
09.04.2022 05:02 3,5 C 2,8 C 0,0 C 90 % 1007,0 hPa 0,0 l/m 0 min 0 min 0 W/m 12,9 km/h (3 Bft) 95,74 %
09.04.2022 05:04 3,5 C 2,8 C 0,0 C 90 % 1007,0 hPa 0,0 l/m 0 min 0 min 0 W/m 16,1 km/h (3 Bft) 95,74 %
09.04.2022 05:06 3,5 C 2,8 C 0,0 C 90 % 1006,9 hPa 0,0 l/m 0 min 0 min 0 W/m 16,1 km/h (3 Bft) 97,87 %
09.04.2022 05:08 3,6 C 2,8 C 0,0 C 90 % 1007,0 hPa 0,0 l/m 0 min 0 min 0 W/m 9,7 km/h (2 Bft) 95,74 %
09.04.2022 05:10 3,6 C 2,8 C 0,0 C 90 % 1007,0 hPa 0,0 l/m 0 min 0 min 0 W/m 6,4 km/h (2 Bft) 95,74 %
09.04.2022 05:12 3,6 C 3,3 C 0,6 C 90 % 1007,1 hPa 0,0 l/m 0 min 0 min 0 W/m 6,4 km/h (2 Bft) 93,48 %
09.04.2022 05:14 3,6 C 3,3 C 0,6 C 90 % 1007,1 hPa 0,0 l/m 0 min 0 min 0 W/m 12,9 km/h (3 Bft) 95,74 %
09.04.2022 05:16 3,6 C 3,3 C 0,6 C 90 % 1007,1 hPa 0,0 l/m 0 min 0 min 0 W/m 9,7 km/h (2 Bft) 93,62 %
09.04.2022 05:18 3,7 C 3,3 C 0,6 C 90 % 1007,1 hPa 0,0 l/m 0 min 0 min 0 W/m 12,9 km/h (3 Bft) 97,87 %
09.04.2022 05:20 3,7 C 3,3 C 0,6 C 90 % 1007,1 hPa 0,0 l/m 0 min 0 min 0 W/m 12,9 km/h (3 Bft) 95,74 %
09.04.2022 05:22 3,7 C 3,3 C 0,6 C 90 % 1007,2 hPa 0,0 l/m 0 min 0 min 0 W/m 16,1 km/h (3 Bft) 95,65 %
09.04.2022 05:24 3,6 C 2,8 C 0,6 C 90 % 1007,2 hPa 0,0 l/m 0 min 0 min 0 W/m 16,1 km/h (3 Bft) 95,74 %
09.04.2022 05:26 3,6 C 2,8 C 0,6 C 90 % 1007,2 hPa 0,0 l/m 0 min 0 min 0 W/m 12,9 km/h (3 Bft) 95,74 %
09.04.2022 05:28 3,6 C 3,3 C 0,6 C 90 % 1007,2 hPa 0,0 l/m 0 min 0 min 0 W/m 9,7 km/h (2 Bft) 95,74 %
09.04.2022 05:30 3,6 C 3,3 C 0,6 C 90 % 1007,3 hPa 0,0 l/m 0 min 0 min 0 W/m 12,9 km/h (3 Bft) 97,87 %
09.04.2022 05:32 3,6 C 3,3 C 0,6 C 90 % 1007,3 hPa 0,0 l/m 0 min 0 min 0 W/m 16,1 km/h (3 Bft) 97,87 %
09.04.2022 05:34 3,6 C 3,3 C 0,6 C 90 % 1007,4 hPa 0,0 l/m 0 min 0 min 0 W/m 12,9 km/h (3 Bft) 93,48 %
09.04.2022 05:36 3,7 C 3,3 C 0,6 C 90 % 1007,5 hPa 0,0 l/m 0 min 0 min 0 W/m 12,9 km/h (3 Bft) 97,87 %
09.04.2022 05:38 3,7 C 3,3 C 0,6 C 90 % 1007,5 hPa 0,0 l/m 0 min 0 min 0 W/m 12,9 km/h (3 Bft) 97,87 %
09.04.2022 05:40 3,7 C 3,3 C 0,6 C 90 % 1007,6 hPa 0,0 l/m 0 min 0 min 0 W/m 16,1 km/h (3 Bft) 97,87 %
09.04.2022 05:42 3,7 C 3,3 C 0,6 C 90 % 1007,6 hPa 0,0 l/m 0 min 0 min 0 W/m 12,9 km/h (3 Bft) 97,87 %
09.04.2022 05:44 3,8 C 3,3 C 0,6 C 90 % 1007,6 hPa 0,0 l/m 0 min 0 min 0 W/m 16,1 km/h (3 Bft) 95,74 %
09.04.2022 05:46 3,8 C 3,3 C 0,6 C 90 % 1007,7 hPa 0,0 l/m 0 min 0 min 0 W/m 12,9 km/h (3 Bft) 97,83 %
09.04.2022 05:48 3,8 C 3,3 C 0,6 C 90 % 1007,8 hPa 0,0 l/m 0 min 0 min 0 W/m 12,9 km/h (3 Bft) 100,00 %
09.04.2022 05:50 3,8 C 3,3 C 0,6 C 90 % 1007,7 hPa 0,0 l/m 0 min 0 min 0 W/m 12,9 km/h (3 Bft) 100,00 %
09.04.2022 05:52 3,8 C 3,3 C 0,6 C 90 % 1007,7 hPa 0,0 l/m 0 min 0 min 0 W/m 16,1 km/h (3 Bft) 100,00 %
09.04.2022 05:54 3,8 C 3,3 C 0,6 C 90 % 1007,8 hPa 0,0 l/m 0 min 0 min 0 W/m 9,7 km/h (2 Bft) 100,00 %
09.04.2022 05:56 3,8 C 3,3 C 0,6 C 90 % 1007,9 hPa 0,0 l/m 0 min 0 min 0 W/m 12,9 km/h (3 Bft) 100,00 %
09.04.2022 05:58 3,8 C 3,3 C 0,6 C 90 % 1007,9 hPa 0,0 l/m 0 min 0 min 0 W/m 9,7 km/h (2 Bft) 100,00 %
09.04.2022 06:00 3,8 C 3,3 C 0,6 C 90 % 1008,0 hPa 0,0 l/m 0 min 0 min 0 W/m 12,9 km/h (3 Bft) 97,87 %
09.04.2022 06:02 3,8 C 3,3 C 0,6 C 90 % 1007,9 hPa 0,0 l/m 0 min 0 min 0 W/m 16,1 km/h (3 Bft) 100,00 %
09.04.2022 06:04 3,9 C 3,3 C 0,6 C 90 % 1007,9 hPa 0,0 l/m 0 min 0 min 0 W/m 12,9 km/h (3 Bft) 100,00 %
09.04.2022 06:08 3,9 C 3,3 C 0,6 C 90 % 1007,8 hPa 0,0 l/m 0 min 0 min 0 W/m 12,9 km/h (3 Bft) 98,94 %
09.04.2022 06:10 3,8 C 3,3 C 0,6 C 90 % 1007,9 hPa 0,0 l/m 0 min 0 min 0 W/m 6,4 km/h (2 Bft) 100,00 %
09.04.2022 06:12 3,8 C 3,3 C 0,6 C 89 % 1007,9 hPa 0,0 l/m 0 min 0 min 0 W/m 12,9 km/h (3 Bft) 97,87 %
09.04.2022 06:14 3,8 C 3,3 C 0,6 C 89 % 1008,0 hPa 0,0 l/m 0 min 0 min 0 W/m 12,9 km/h (3 Bft) 100,00 %
09.04.2022 06:16 3,8 C 3,3 C 0,6 C 89 % 1007,9 hPa 0,0 l/m 0 min 0 min 0 W/m 12,9 km/h (3 Bft) 100,00 %
09.04.2022 06:18 3,8 C 3,3 C 0,6 C 89 % 1008,0 hPa 0,0 l/m 0 min 0 min 0 W/m 9,7 km/h (2 Bft) 97,87 %
09.04.2022 06:20 3,8 C 3,3 C 0,6 C 89 % 1008,0 hPa 0,0 l/m 0 min 0 min 0 W/m 16,1 km/h (3 Bft) 97,83 %
09.04.2022 06:22 3,8 C 3,3 C 0,6 C 89 % 1008,0 hPa 0,0 l/m 0 min 0 min 0 W/m 12,9 km/h (3 Bft) 100,00 %
09.04.2022 06:24 3,8 C 3,3 C 0,6 C 89 % 1008,0 hPa 0,0 l/m 0 min 0 min 0 W/m 6,4 km/h (2 Bft) 100,00 %
09.04.2022 06:26 3,8 C 3,3 C 0,6 C 89 % 1008,1 hPa 0,0 l/m 0 min 0 min 0 W/m 6,4 km/h (2 Bft) 95,74 %
09.04.2022 06:28 3,8 C 3,3 C 0,6 C 89 % 1008,2 hPa 0,0 l/m 0 min 0 min 0 W/m 16,1 km/h (3 Bft) 100,00 %
09.04.2022 06:30 3,8 C 3,3 C 0,6 C 89 % 1008,2 hPa 0,0 l/m 0 min 0 min 0 W/m 16,1 km/h (3 Bft) 100,00 %
09.04.2022 06:32 3,8 C 3,3 C 0,6 C 89 % 1008,2 hPa 0,0 l/m 0 min 0 min 0 W/m 16,1 km/h (3 Bft) 100,00 %
09.04.2022 06:34 3,8 C 3,3 C 0,6 C 89 % 1008,3 hPa 0,0 l/m 0 min 0 min 0 W/m 16,1 km/h (3 Bft) 100,00 %
09.04.2022 06:36 3,9 C 3,3 C 0,6 C 89 % 1008,3 hPa 0,0 l/m 0 min 0 min 0 W/m 12,9 km/h (3 Bft) 97,87 %
09.04.2022 06:41 3,8 C 3,3 C 0,6 C 89 % 1008,5 hPa 0,0 l/m 0 min 0 min 0 W/m 6,4 km/h (2 Bft) 9,09 %
09.04.2022 06:42 3,8 C 3,3 C 0,6 C 89 % 1008,5 hPa 0,0 l/m 0 min 0 min 0 W/m 6,4 km/h (2 Bft) 95,83 %
09.04.2022 06:44 3,8 C 3,3 C 0,6 C 88 % 1008,5 hPa 0,0 l/m 0 min 0 min 0 W/m 6,4 km/h (2 Bft) 95,74 %
09.04.2022 06:46 3,8 C 3,3 C 0,6 C 88 % 1008,5 hPa 0,0 l/m 0 min 0 min 0 W/m 9,7 km/h (2 Bft) 97,83 %
09.04.2022 06:48 3,8 C 3,3 C 0,6 C 88 % 1008,5 hPa 0,0 l/m 0 min 0 min 0 W/m 12,9 km/h (3 Bft) 100,00 %
09.04.2022 06:50 3,8 C 3,3 C 0,6 C 88 % 1008,6 hPa 0,0 l/m 0 min 0 min 0 W/m 16,1 km/h (3 Bft) 97,87 %
09.04.2022 06:52 3,8 C 3,3 C 0,6 C 88 % 1008,6 hPa 0,0 l/m 0 min 0 min 0 W/m 6,4 km/h (2 Bft) 95,74 %
09.04.2022 06:54 3,8 C 2,8 C 0,6 C 88 % 1008,6 hPa 0,0 l/m 0 min 0 min 2 W/m 12,9 km/h (3 Bft) 100,00 %
09.04.2022 06:56 3,8 C 2,8 C 0,6 C 88 % 1008,7 hPa 0,0 l/m 0 min 0 min 5 W/m 12,9 km/h (3 Bft) 97,83 %
09.04.2022 06:58 3,7 C 2,8 C 0,0 C 88 % 1008,7 hPa 0,0 l/m 0 min 0 min 5 W/m 12,9 km/h (3 Bft) 97,87 %
09.04.2022 07:00 3,7 C 3,3 C 0,0 C 88 % 1008,7 hPa 0,0 l/m 0 min 0 min 5 W/m 9,7 km/h (2 Bft) 97,87 %
09.04.2022 07:02 3,7 C 3,3 C 0,0 C 88 % 1008,8 hPa 0,0 l/m 0 min 0 min 5 W/m 9,7 km/h (2 Bft) 93,62 %
09.04.2022 07:04 3,7 C 3,3 C 0,0 C 88 % 1008,8 hPa 0,0 l/m 0 min 0 min 5 W/m 6,4 km/h (2 Bft) 100,00 %
09.04.2022 07:06 3,7 C 3,3 C 0,6 C 88 % 1008,8 hPa 0,0 l/m 0 min 0 min 7 W/m 12,9 km/h (3 Bft) 95,74 %
09.04.2022 07:08 3,7 C 3,3 C 0,6 C 88 % 1008,9 hPa 0,0 l/m 0 min 0 min 7 W/m 9,7 km/h (2 Bft) 100,00 %
09.04.2022 07:10 3,7 C 3,3 C 0,6 C 88 % 1008,9 hPa 0,0 l/m 0 min 0 min 7 W/m 16,1 km/h (3 Bft) 95,74 %
09.04.2022 07:12 3,7 C 3,3 C 0,6 C 89 % 1008,9 hPa 0,0 l/m 0 min 0 min 8 W/m 12,9 km/h (3 Bft) 100,00 %
09.04.2022 07:14 3,7 C 3,3 C 0,6 C 89 % 1008,9 hPa 0,0 l/m 0 min 0 min 9 W/m 19,3 km/h (3 Bft) 100,00 %
09.04.2022 07:16 3,7 C 3,3 C 0,6 C 89 % 1009,0 hPa 0,0 l/m 0 min 0 min 12 W/m 12,9 km/h (3 Bft) 47,37 %
09.04.2022 07:18 3,7 C 3,3 C 0,6 C 89 % 1008,9 hPa 0,0 l/m 0 min 0 min 12 W/m 16,1 km/h (3 Bft) 97,87 %
09.04.2022 07:20 3,7 C 3,3 C 0,6 C 89 % 1008,9 hPa 0,0 l/m 0 min 0 min 12 W/m 19,3 km/h (3 Bft) 100,00 %
09.04.2022 07:22 3,7 C 2,8 C 0,0 C 89 % 1009,0 hPa 0,0 l/m 0 min 0 min 14 W/m 12,9 km/h (3 Bft) 97,87 %
09.04.2022 07:24 3,6 C 2,8 C 0,0 C 89 % 1009,0 hPa 0,0 l/m 0 min 0 min 16 W/m 16,1 km/h (3 Bft) 100,00 %
09.04.2022 07:26 3,6 C 2,8 C 0,0 C 89 % 1009,0 hPa 0,0 l/m 0 min 0 min 18 W/m 12,9 km/h (3 Bft) 100,00 %
09.04.2022 07:28 3,6 C 2,8 C 0,0 C 89 % 1009,0 hPa 0,0 l/m 0 min 0 min 18 W/m 12,9 km/h (3 Bft) 100,00 %
09.04.2022 07:30 3,6 C 2,8 C 0,0 C 89 % 1009,1 hPa 0,0 l/m 0 min 0 min 18 W/m 16,1 km/h (3 Bft) 100,00 %
09.04.2022 07:32 3,6 C 2,8 C 0,0 C 89 % 1009,0 hPa 0,0 l/m 0 min 0 min 18 W/m 12,9 km/h (3 Bft) 97,83 %
09.04.2022 07:34 3,5 C 2,8 C 0,0 C 89 % 1009,2 hPa 0,0 l/m 0 min 0 min 16 W/m 19,3 km/h (3 Bft) 100,00 %
09.04.2022 07:36 3,5 C 2,8 C 0,0 C 89 % 1009,2 hPa 0,0 l/m 0 min 0 min 16 W/m 9,7 km/h (2 Bft) 97,87 %
09.04.2022 07:38 3,4 C 2,8 C 0,0 C 89 % 1009,2 hPa 0,0 l/m 0 min 0 min 17 W/m 16,1 km/h (3 Bft) 95,74 %
09.04.2022 07:40 3,4 C 2,8 C 0,0 C 89 % 1009,2 hPa 0,0 l/m 0 min 0 min 20 W/m 16,1 km/h (3 Bft) 97,87 %
09.04.2022 07:42 3,4 C 2,8 C 0,0 C 90 % 1009,3 hPa 0,0 l/m 0 min 0 min 24 W/m 19,3 km/h (3 Bft) 97,83 %
09.04.2022 07:44 3,4 C 2,8 C 0,0 C 90 % 1009,2 hPa 0,0 l/m 0 min 0 min 25 W/m 22,5 km/h (4 Bft) 93,62 %
09.04.2022 07:46 3,4 C 2,8 C 0,0 C 90 % 1009,4 hPa 0,0 l/m 0 min 0 min 25 W/m 12,9 km/h (3 Bft) 95,74 %
09.04.2022 07:48 3,4 C 2,8 C 0,0 C 90 % 1009,4 hPa 0,0 l/m 0 min 0 min 27 W/m 9,7 km/h (2 Bft) 93,62 %
09.04.2022 07:50 3,4 C 2,8 C 0,0 C 90 % 1009,4 hPa 0,0 l/m 0 min 0 min 31 W/m 9,7 km/h (2 Bft) 95,74 %
09.04.2022 07:52 3,4 C 2,8 C 0,0 C 90 % 1009,4 hPa 0,0 l/m 0 min 0 min 32 W/m 22,5 km/h (4 Bft) 95,74 %
09.04.2022 07:54 3,4 C 2,8 C 0,0 C 90 % 1009,5 hPa 0,0 l/m 0 min 0 min 31 W/m 12,9 km/h (3 Bft) 95,74 %
09.04.2022 07:56 3,5 C 2,8 C 0,0 C 90 % 1009,6 hPa 0,0 l/m 0 min 0 min 29 W/m 16,1 km/h (3 Bft) 95,65 %
09.04.2022 07:58 3,5 C 3,3 C 0,0 C 90 % 1009,5 hPa 0,0 l/m 0 min 0 min 32 W/m 22,5 km/h (4 Bft) 95,74 %
09.04.2022 08:00 3,6 C 3,3 C 0,6 C 90 % 1009,7 hPa 0,0 l/m 0 min 0 min 36 W/m 16,1 km/h (3 Bft) 95,74 %
09.04.2022 08:02 3,6 C 3,3 C 0,6 C 90 % 1009,8 hPa 0,0 l/m 0 min 0 min 45 W/m 16,1 km/h (3 Bft) 93,62 %
09.04.2022 08:04 3,6 C 3,3 C 0,6 C 90 % 1009,8 hPa 0,0 l/m 0 min 0 min 60 W/m 9,7 km/h (2 Bft) 95,74 %
09.04.2022 08:06 3,7 C 3,3 C 0,6 C 90 % 1009,8 hPa 0,0 l/m 0 min 0 min 60 W/m 16,1 km/h (3 Bft) 93,48 %
09.04.2022 08:08 3,7 C 3,3 C 0,6 C 90 % 1009,8 hPa 0,0 l/m 0 min 0 min 42 W/m 19,3 km/h (3 Bft) 95,74 %
09.04.2022 08:10 3,7 C 3,3 C 0,6 C 90 % 1009,8 hPa 0,0 l/m 0 min 0 min 34 W/m 19,3 km/h (3 Bft) 93,62 %
09.04.2022 08:12 3,8 C 3,3 C 0,6 C 90 % 1009,9 hPa 0,0 l/m 0 min 0 min 33 W/m 16,1 km/h (3 Bft) 91,49 %
09.04.2022 08:14 3,8 C 3,3 C 0,6 C 90 % 1009,9 hPa 0,0 l/m 0 min 0 min 39 W/m 16,1 km/h (3 Bft) 91,49 %
09.04.2022 08:16 3,8 C 3,3 C 0,6 C 89 % 1010,0 hPa 0,0 l/m 0 min 0 min 45 W/m 16,1 km/h (3 Bft) 95,74 %
09.04.2022 08:18 3,9 C 3,3 C 0,6 C 89 % 1010,0 hPa 0,0 l/m 0 min 0 min 48 W/m 19,3 km/h (3 Bft) 91,30 %
09.04.2022 08:20 3,9 C 3,9 C 0,6 C 89 % 1010,0 hPa 0,0 l/m 0 min 0 min 55 W/m 25,7 km/h (4 Bft) 95,74 %
09.04.2022 08:22 4,0 C 3,9 C 0,6 C 89 % 1010,1 hPa 0,0 l/m 0 min 0 min 69 W/m 16,1 km/h (3 Bft) 95,74 %
09.04.2022 08:24 4,1 C 3,9 C 1,1 C 89 % 1010,1 hPa 0,0 l/m 0 min 0 min 88 W/m 22,5 km/h (4 Bft) 91,49 %
09.04.2022 08:26 4,1 C 3,9 C 1,1 C 89 % 1010,2 hPa 0,0 l/m 0 min 0 min 90 W/m 16,1 km/h (3 Bft) 93,62 %
09.04.2022 08:28 4,2 C 4,4 C 1,1 C 89 % 1010,1 hPa 0,0 l/m 0 min 0 min 95 W/m 12,9 km/h (3 Bft) 93,62 %
09.04.2022 08:30 4,2 C 4,4 C 1,1 C 89 % 1010,2 hPa 0,0 l/m 0 min 0 min 121 W/m 22,5 km/h (4 Bft) 95,65 %
09.04.2022 08:32 4,3 C 4,4 C 1,1 C 89 % 1010,2 hPa 0,0 l/m 0 min 0 min 95 W/m 19,3 km/h (3 Bft) 93,62 %
09.04.2022 08:34 4,3 C 4,4 C 1,1 C 88 % 1010,2 hPa 0,0 l/m 0 min 0 min 63 W/m 19,3 km/h (3 Bft) 95,74 %
09.04.2022 08:36 4,3 C 4,4 C 1,1 C 88 % 1010,2 hPa 0,0 l/m 0 min 0 min 67 W/m 16,1 km/h (3 Bft) 95,74 %
09.04.2022 08:38 4,4 C 4,4 C 1,1 C 88 % 1010,3 hPa 0,0 l/m 0 min 0 min 108 W/m 19,3 km/h (3 Bft) 97,87 %
09.04.2022 08:40 4,4 C 4,4 C 1,1 C 88 % 1010,3 hPa 0,0 l/m 0 min 0 min 119 W/m 19,3 km/h (3 Bft) 100,00 %
09.04.2022 08:42 4,5 C 4,4 C 1,7 C 88 % 1010,3 hPa 0,0 l/m 0 min 0 min 122 W/m 16,1 km/h (3 Bft) 100,00 %
09.04.2022 08:44 4,6 C 5,0 C 1,7 C 88 % 1010,3 hPa 0,0 l/m 0 min 0 min 105 W/m 12,9 km/h (3 Bft) 95,74 %
09.04.2022 08:46 4,7 C 5,0 C 1,7 C 88 % 1010,4 hPa 0,0 l/m 0 min 0 min 86 W/m 19,3 km/h (3 Bft) 97,83 %
09.04.2022 08:48 4,7 C 5,0 C 1,7 C 87 % 1010,4 hPa 0,0 l/m 0 min 0 min 74 W/m 6,4 km/h (2 Bft) 100,00 %
09.04.2022 08:50 4,7 C 5,0 C 1,7 C 87 % 1010,4 hPa 0,0 l/m 0 min 0 min 78 W/m 16,1 km/h (3 Bft) 100,00 %
09.04.2022 08:52 4,8 C 5,0 C 1,7 C 87 % 1010,5 hPa 0,0 l/m 0 min 0 min 113 W/m 22,5 km/h (4 Bft) 97,87 %
09.04.2022 08:54 4,8 C 5,0 C 1,7 C 87 % 1010,5 hPa 0,0 l/m 2 min 0 min 172 W/m 19,3 km/h (3 Bft) 100,00 %
09.04.2022 08:56 4,9 C 5,6 C 1,7 C 87 % 1010,5 hPa 0,0 l/m 2 min 0 min 178 W/m 6,4 km/h (2 Bft) 97,87 %
09.04.2022 08:58 5,0 C 5,6 C 2,2 C 87 % 1010,6 hPa 0,0 l/m 2 min 0 min 213 W/m 12,9 km/h (3 Bft) 100,00 %
09.04.2022 09:00 5,1 C 5,6 C 2,2 C 87 % 1010,6 hPa 0,0 l/m 2 min 0 min 202 W/m 19,3 km/h (3 Bft) 100,00 %
09.04.2022 09:02 5,2 C 5,6 C 2,2 C 86 % 1010,6 hPa 0,0 l/m 2 min 0 min 195 W/m 12,9 km/h (3 Bft) 100,00 %
09.04.2022 09:04 5,2 C 5,6 C 2,2 C 86 % 1010,6 hPa 0,0 l/m 2 min 0 min 180 W/m 16,1 km/h (3 Bft) 100,00 %
09.04.2022 09:06 5,3 C 5,6 C 2,2 C 86 % 1010,6 hPa 0,0 l/m 2 min 0 min 332 W/m 16,1 km/h (3 Bft) 100,00 %
09.04.2022 09:08 5,3 C 5,6 C 2,2 C 86 % 1010,7 hPa 0,0 l/m 2 min 0 min 361 W/m 16,1 km/h (3 Bft) 97,83 %
09.04.2022 09:10 5,4 C 5,6 C 2,2 C 86 % 1010,7 hPa 0,0 l/m 2 min 0 min 312 W/m 22,5 km/h (4 Bft) 100,00 %
09.04.2022 09:12 5,4 C 5,6 C 2,2 C 85 % 1010,7 hPa 0,0 l/m 0 min 0 min 89 W/m 16,1 km/h (3 Bft) 100,00 %
09.04.2022 09:14 5,4 C 5,6 C 2,2 C 85 % 1010,8 hPa 0,0 l/m 0 min 0 min 94 W/m 16,1 km/h (3 Bft) 100,00 %
09.04.2022 09:16 5,4 C 6,1 C 2,2 C 85 % 1010,8 hPa 0,0 l/m 2 min 0 min 214 W/m 16,1 km/h (3 Bft) 100,00 %
09.04.2022 09:18 5,4 C 7,2 C 2,2 C 85 % 1010,8 hPa 0,0 l/m 2 min 0 min 445 W/m 16,1 km/h (3 Bft) 100,00 %
09.04.2022 09:20 5,4 C 7,2 C 2,2 C 85 % 1010,8 hPa 0,0 l/m 2 min 0 min 340 W/m 22,5 km/h (4 Bft) 97,83 %
09.04.2022 09:22 5,6 C 7,2 C 2,2 C 85 % 1010,9 hPa 0,0 l/m 0 min 0 min 138 W/m 16,1 km/h (3 Bft) 100,00 %
09.04.2022 09:24 5,6 C 6,7 C 2,2 C 85 % 1010,9 hPa 0,0 l/m 0 min 0 min 101 W/m 16,1 km/h (3 Bft) 100,00 %
09.04.2022 09:26 5,6 C 6,7 C 2,2 C 85 % 1011,0 hPa 0,0 l/m 0 min 0 min 82 W/m 22,5 km/h (4 Bft) 100,00 %
09.04.2022 09:28 5,6 C 7,8 C 2,2 C 85 % 1011,0 hPa 0,0 l/m 2 min 0 min 374 W/m 16,1 km/h (3 Bft) 100,00 %
09.04.2022 09:30 5,7 C 8,3 C 2,8 C 85 % 1011,0 hPa 0,0 l/m 2 min 0 min 400 W/m 19,3 km/h (3 Bft) 100,00 %
09.04.2022 09:32 5,8 C 8,9 C 2,8 C 84 % 1011,1 hPa 0,0 l/m 2 min 0 min 437 W/m 16,1 km/h (3 Bft) 100,00 %
09.04.2022 09:34 5,9 C 7,8 C 2,8 C 84 % 1011,1 hPa 0,0 l/m 2 min 0 min 445 W/m 22,5 km/h (4 Bft) 100,00 %
09.04.2022 09:36 5,9 C 7,8 C 2,8 C 84 % 1010,9 hPa 0,0 l/m 0 min 0 min 169 W/m 16,1 km/h (3 Bft) 97,87 %
09.04.2022 09:38 6,0 C 8,3 C 2,8 C 84 % 1011,0 hPa 0,0 l/m 2 min 0 min 384 W/m 12,9 km/h (3 Bft) 100,00 %
09.04.2022 09:40 6,1 C 8,9 C 2,8 C 84 % 1011,0 hPa 0,0 l/m 2 min 0 min 425 W/m 16,1 km/h (3 Bft) 100,00 %
09.04.2022 09:42 6,2 C 8,9 C 3,3 C 83 % 1011,0 hPa 0,0 l/m 2 min 0 min 453 W/m 16,1 km/h (3 Bft) 100,00 %
09.04.2022 09:44 6,2 C 8,3 C 3,3 C 83 % 1011,1 hPa 0,0 l/m 2 min 0 min 468 W/m 22,5 km/h (4 Bft) 100,00 %
09.04.2022 09:46 6,3 C 7,8 C 3,3 C 83 % 1011,1 hPa 0,0 l/m 2 min 0 min 432 W/m 22,5 km/h (4 Bft) 97,22 %
09.04.2022 09:48 6,4 C 8,3 C 3,3 C 83 % 1011,1 hPa 0,0 l/m 2 min 0 min 455 W/m 16,1 km/h (3 Bft) 100,00 %
09.04.2022 09:50 6,5 C 8,9 C 3,3 C 83 % 1011,0 hPa 0,0 l/m 2 min 0 min 484 W/m 16,1 km/h (3 Bft) 100,00 %
09.04.2022 09:52 6,6 C 8,9 C 3,9 C 82 % 1011,1 hPa 0,0 l/m 2 min 0 min 518 W/m 19,3 km/h (3 Bft) 100,00 %
09.04.2022 09:54 6,7 C 8,9 C 3,9 C 82 % 1011,2 hPa 0,0 l/m 2 min 0 min 555 W/m 22,5 km/h (4 Bft) 100,00 %
09.04.2022 09:56 6,8 C 8,3 C 3,9 C 81 % 1011,2 hPa 0,0 l/m 2 min 0 min 523 W/m 22,5 km/h (4 Bft) 100,00 %
09.04.2022 09:58 6,9 C 8,3 C 3,9 C 81 % 1011,2 hPa 0,0 l/m 2 min 0 min 649 W/m 29,0 km/h (5 Bft) 100,00 %
09.04.2022 10:00 7,0 C 8,3 C 4,4 C 81 % 1011,2 hPa 0,0 l/m 2 min 0 min 400 W/m 22,5 km/h (4 Bft) 100,00 %
09.04.2022 10:02 7,1 C 8,9 C 4,4 C 81 % 1011,3 hPa 0,0 l/m 2 min 2 min 339 W/m 29,0 km/h (5 Bft) 98,18 %
09.04.2022 10:04 7,1 C 7,2 C 3,9 C 81 % 1011,3 hPa 0,0 l/m 0 min 2 min 200 W/m 38,6 km/h (5 Bft) 100,00 %
09.04.2022 10:06 6,9 C 6,7 C 3,3 C 82 % 1011,4 hPa 0,0 l/m 0 min 2 min 193 W/m 19,3 km/h (3 Bft) 100,00 %
09.04.2022 10:08 6,8 C 6,7 C 3,3 C 82 % 1011,4 hPa 0,0 l/m 2 min 2 min 263 W/m 22,5 km/h (4 Bft) 100,00 %
09.04.2022 10:10 6,7 C 6,7 C 3,3 C 83 % 1011,5 hPa 0,0 l/m 2 min 0 min 294 W/m 19,3 km/h (3 Bft) 97,87 %
09.04.2022 10:12 6,6 C 6,7 C 3,3 C 83 % 1011,4 hPa 0,0 l/m 2 min 0 min 316 W/m 19,3 km/h (3 Bft) 100,00 %
09.04.2022 10:14 6,5 C 6,7 C 3,3 C 82 % 1011,5 hPa 0,0 l/m 2 min 2 min 377 W/m 25,7 km/h (4 Bft) 96,36 %
09.04.2022 10:16 6,3 C 6,7 C 3,3 C 81 % 1011,5 hPa 0,0 l/m 0 min 0 min 234 W/m 25,7 km/h (4 Bft) 97,44 %
09.04.2022 10:18 6,3 C 6,7 C 3,3 C 81 % 1011,6 hPa 0,0 l/m 2 min 0 min 256 W/m 19,3 km/h (3 Bft) 98,08 %
09.04.2022 10:20 6,3 C 6,7 C 3,3 C 81 % 1011,6 hPa 0,0 l/m 2 min 0 min 311 W/m 19,3 km/h (3 Bft) 97,56 %
09.04.2022 10:22 6,3 C 6,7 C 3,3 C 81 % 1011,7 hPa 0,0 l/m 0 min 0 min 237 W/m 22,5 km/h (4 Bft) 95,74 %
09.04.2022 10:24 6,3 C 6,7 C 3,3 C 81 % 1011,6 hPa 0,0 l/m 0 min 0 min 144 W/m 16,1 km/h (3 Bft) 92,86 %
09.04.2022 10:26 6,3 C 6,1 C 3,3 C 81 % 1011,6 hPa 0,0 l/m 0 min 0 min 162 W/m 12,9 km/h (3 Bft) 95,65 %
09.04.2022 10:28 6,2 C 6,1 C 2,8 C 82 % 1011,6 hPa 0,0 l/m 0 min 0 min 183 W/m 22,5 km/h (4 Bft) 95,74 %
09.04.2022 10:30 6,2 C 6,1 C 2,8 C 82 % 1011,7 hPa 0,0 l/m 0 min 0 min 176 W/m 22,5 km/h (4 Bft) 95,74 %
09.04.2022 10:32 6,2 C 6,1 C 2,8 C 82 % 1011,7 hPa 0,0 l/m 0 min 0 min 157 W/m 16,1 km/h (3 Bft) 94,74 %
09.04.2022 10:34 6,2 C 6,1 C 2,8 C 83 % 1011,6 hPa 0,0 l/m 0 min 0 min 168 W/m 22,5 km/h (4 Bft) 95,74 %
09.04.2022 10:36 6,2 C 6,1 C 2,8 C 83 % 1011,8 hPa 0,0 l/m 0 min 0 min 194 W/m 19,3 km/h (3 Bft) 96,43 %
09.04.2022 10:38 6,2 C 6,1 C 2,8 C 84 % 1011,9 hPa 0,0 l/m 0 min 0 min 192 W/m 16,1 km/h (3 Bft) 93,48 %
09.04.2022 10:40 6,2 C 6,1 C 3,3 C 84 % 1011,9 hPa 0,0 l/m 0 min 0 min 166 W/m 16,1 km/h (3 Bft) 95,74 %
09.04.2022 10:42 6,2 C 6,1 C 2,8 C 84 % 1011,9 hPa 0,0 l/m 0 min 0 min 127 W/m 9,7 km/h (2 Bft) 93,62 %
09.04.2022 10:44 6,2 C 6,1 C 2,8 C 84 % 1011,9 hPa 0,0 l/m 0 min 2 min 118 W/m 16,1 km/h (3 Bft) 95,74 %
09.04.2022 10:46 6,1 C 6,1 C 2,8 C 85 % 1011,9 hPa 0,0 l/m 0 min 2 min 161 W/m 12,9 km/h (3 Bft) 91,49 %
09.04.2022 10:48 6,1 C 7,2 C 3,3 C 85 % 1011,9 hPa 0,0 l/m 0 min 0 min 162 W/m 12,9 km/h (3 Bft) 95,74 %
09.04.2022 10:50 6,2 C 7,2 C 3,3 C 86 % 1012,0 hPa 0,0 l/m 0 min 0 min 136 W/m 12,9 km/h (3 Bft) 95,65 %
09.04.2022 10:52 6,3 C 7,8 C 3,9 C 86 % 1011,9 hPa 0,0 l/m 0 min 0 min 138 W/m 12,9 km/h (3 Bft) 95,74 %
09.04.2022 10:54 6,5 C 7,8 C 3,9 C 86 % 1011,9 hPa 0,0 l/m 0 min 0 min 173 W/m 12,9 km/h (3 Bft) 97,87 %
09.04.2022 10:56 6,5 C 7,8 C 3,9 C 86 % 1012,0 hPa 0,0 l/m 0 min 0 min 187 W/m 16,1 km/h (3 Bft) 93,62 %
09.04.2022 10:58 6,6 C 8,3 C 4,4 C 85 % 1012,0 hPa 0,0 l/m 2 min 0 min 391 W/m 12,9 km/h (3 Bft) 93,62 %
09.04.2022 11:00 6,7 C 8,3 C 5,0 C 85 % 1012,1 hPa 0,0 l/m 2 min 0 min 605 W/m 9,7 km/h (2 Bft) 97,96 %
09.04.2022 11:02 6,8 C 8,3 C 5,6 C 84 % 1012,0 hPa 0,0 l/m 2 min 0 min 418 W/m 16,1 km/h (3 Bft) 100,00 %
09.04.2022 11:04 6,8 C 8,3 C 6,1 C 84 % 1012,1 hPa 0,0 l/m 0 min 0 min 141 W/m 9,7 km/h (2 Bft) 100,00 %
09.04.2022 11:06 6,9 C 8,3 C 5,6 C 83 % 1012,1 hPa 0,0 l/m 0 min 0 min 193 W/m 12,9 km/h (3 Bft) 96,61 %
09.04.2022 11:08 7,0 C 8,3 C 5,0 C 83 % 1012,1 hPa 0,0 l/m 2 min 0 min 626 W/m 12,9 km/h (3 Bft) 100,00 %
09.04.2022 11:10 7,1 C 7,8 C 5,0 C 82 % 1012,2 hPa 0,0 l/m 2 min 0 min 642 W/m 12,9 km/h (3 Bft) 100,00 %
09.04.2022 11:12 7,0 C 7,8 C 4,4 C 82 % 1012,2 hPa 0,0 l/m 2 min 0 min 648 W/m 16,1 km/h (3 Bft) 97,83 %
09.04.2022 11:14 7,0 C 7,8 C 4,4 C 82 % 1012,1 hPa 0,0 l/m 2 min 0 min 667 W/m 6,4 km/h (2 Bft) 97,22 %
09.04.2022 11:16 7,1 C 7,8 C 4,4 C 82 % 1012,1 hPa 0,0 l/m 2 min 0 min 673 W/m 12,9 km/h (3 Bft) 100,00 %
09.04.2022 11:18 7,1 C 8,3 C 5,0 C 82 % 1012,2 hPa 0,0 l/m 2 min 0 min 640 W/m 12,9 km/h (3 Bft) 100,00 %
09.04.2022 11:20 7,2 C 8,3 C 5,6 C 82 % 1012,3 hPa 0,0 l/m 2 min 0 min 618 W/m 16,1 km/h (3 Bft) 100,00 %
09.04.2022 11:22 7,3 C 8,9 C 5,6 C 82 % 1012,1 hPa 0,0 l/m 2 min 0 min 411 W/m 12,9 km/h (3 Bft) 100,00 %
09.04.2022 11:24 7,4 C 8,9 C 5,6 C 82 % 1012,3 hPa 0,0 l/m 0 min 0 min 181 W/m 19,3 km/h (3 Bft) 97,87 %
09.04.2022 11:26 7,6 C 9,4 C 5,6 C 82 % 1012,2 hPa 0,0 l/m 2 min 0 min 514 W/m 22,5 km/h (4 Bft) 97,83 %
09.04.2022 11:28 7,7 C 8,9 C 5,6 C 81 % 1012,1 hPa 0,0 l/m 2 min 0 min 731 W/m 16,1 km/h (3 Bft) 100,00 %
09.04.2022 11:30 7,8 C 8,9 C 5,6 C 80 % 1012,2 hPa 0,0 l/m 2 min 0 min 667 W/m 19,3 km/h (3 Bft) 100,00 %
09.04.2022 11:32 7,8 C 8,9 C 5,6 C 80 % 1012,3 hPa 0,0 l/m 2 min 0 min 321 W/m 16,1 km/h (3 Bft) 97,87 %
09.04.2022 11:34 7,9 C 8,9 C 5,6 C 79 % 1012,2 hPa 0,0 l/m 2 min 0 min 329 W/m 19,3 km/h (3 Bft) 97,87 %
09.04.2022 11:36 8,0 C 9,4 C 6,1 C 79 % 1012,1 hPa 0,0 l/m 2 min 0 min 429 W/m 19,3 km/h (3 Bft) 100,00 %
09.04.2022 11:38 8,2 C 10,0 C 6,7 C 80 % 1012,1 hPa 0,0 l/m 2 min 0 min 413 W/m 12,9 km/h (3 Bft) 100,00 %
09.04.2022 11:40 8,4 C 10,6 C 7,2 C 79 % 1012,1 hPa 0,0 l/m 2 min 0 min 588 W/m 19,3 km/h (3 Bft) 97,83 %
09.04.2022 11:42 8,5 C 10,0 C 7,2 C 79 % 1012,0 hPa 0,0 l/m 2 min 0 min 582 W/m 19,3 km/h (3 Bft) 96,36 %
09.04.2022 11:44 8,7 C 10,6 C 7,8 C 78 % 1012,0 hPa 0,0 l/m 2 min 0 min 506 W/m 9,7 km/h (2 Bft) 94,74 %
09.04.2022 11:46 8,8 C 10,0 C 7,2 C 78 % 1012,0 hPa 0,0 l/m 0 min 0 min 247 W/m 16,1 km/h (3 Bft) 95,74 %
09.04.2022 11:48 8,8 C 9,4 C 6,7 C 77 % 1012,0 hPa 0,0 l/m 0 min 0 min 170 W/m 12,9 km/h (3 Bft) 97,92 %
09.04.2022 11:50 8,7 C 8,9 C 6,1 C 76 % 1012,0 hPa 0,0 l/m 0 min 0 min 208 W/m 19,3 km/h (3 Bft) 97,83 %
09.04.2022 11:52 8,6 C 9,4 C 6,7 C 76 % 1011,9 hPa 0,0 l/m 0 min 0 min 253 W/m 19,3 km/h (3 Bft) 97,87 %
09.04.2022 11:54 8,6 C 8,9 C 6,7 C 75 % 1012,0 hPa 0,0 l/m 0 min 0 min 248 W/m 19,3 km/h (3 Bft) 96,36 %
09.04.2022 11:56 8,6 C 9,4 C 6,7 C 72 % 1011,9 hPa 0,0 l/m 2 min 0 min 427 W/m 35,4 km/h (5 Bft) 97,87 %
09.04.2022 11:58 8,7 C 9,4 C 7,2 C 73 % 1011,9 hPa 0,0 l/m 2 min 0 min 896 W/m 22,5 km/h (4 Bft) 97,87 %
09.04.2022 12:00 8,8 C 10,6 C 8,3 C 72 % 1011,9 hPa 0,0 l/m 2 min 0 min 893 W/m 19,3 km/h (3 Bft) 97,37 %
09.04.2022 12:02 8,9 C 10,6 C 7,8 C 72 % 1011,9 hPa 0,0 l/m 2 min 0 min 893 W/m 22,5 km/h (4 Bft) 97,83 %
09.04.2022 12:04 8,9 C 10,6 C 7,8 C 71 % 1011,9 hPa 0,0 l/m 2 min 0 min 447 W/m 29,0 km/h (5 Bft) 97,87 %
09.04.2022 12:08 9,4 C 10,6 C 8,9 C 71 % 1012,1 hPa 0,0 l/m 4 min 0 min 863 W/m 25,7 km/h (4 Bft) 95,79 %
09.04.2022 12:10 9,2 C 8,9 C 6,7 C 69 % 1012,6 hPa 0,0 l/m 0 min 0 min 59 W/m 45,1 km/h (6 Bft) 97,87 %
09.04.2022 12:12 8,4 C 6,7 C 4,4 C 69 % 1012,6 hPa 0,0 l/m 0 min 2 min 34 W/m 35,4 km/h (5 Bft) 98,15 %
09.04.2022 12:14 7,6 C 5,6 C 2,8 C 73 % 1012,4 hPa 0,0 l/m 0 min 2 min 29 W/m 48,3 km/h (6 Bft) 97,37 %
09.04.2022 12:16 7,0 C 5,6 C 2,2 C 75 % 1012,4 hPa 0,0 l/m 0 min 2 min 27 W/m 45,1 km/h (6 Bft) 97,92 %
09.04.2022 12:18 6,5 C 5,0 C 2,2 C 76 % 1012,5 hPa 0,0 l/m 0 min 2 min 28 W/m 41,8 km/h (6 Bft) 97,87 %
09.04.2022 12:20 6,0 C 4,4 C 1,7 C 78 % 1012,6 hPa 0,2 l/m 0 min 2 min 38 W/m 32,2 km/h (5 Bft) 95,74 %
09.04.2022 12:22 5,7 C 4,4 C 1,1 C 80 % 1012,5 hPa 0,0 l/m 0 min 2 min 42 W/m 29,0 km/h (5 Bft) 98,18 %
09.04.2022 12:24 5,6 C 4,4 C 1,1 C 81 % 1012,5 hPa 0,0 l/m 0 min 2 min 26 W/m 32,2 km/h (5 Bft) 97,30 %
09.04.2022 12:26 5,3 C 4,4 C 0,6 C 81 % 1012,6 hPa 0,2 l/m 0 min 2 min 18 W/m 29,0 km/h (5 Bft) 97,92 %
09.04.2022 12:28 5,2 C 3,9 C 0,6 C 82 % 1012,5 hPa 0,0 l/m 0 min 2 min 27 W/m 19,3 km/h (3 Bft) 97,87 %
09.04.2022 12:30 5,0 C 3,9 C 0,6 C 82 % 1012,6 hPa 0,2 l/m 0 min 2 min 49 W/m 25,7 km/h (4 Bft) 97,87 %
09.04.2022 12:32 4,9 C 3,9 C 0,6 C 83 % 1012,7 hPa 0,2 l/m 0 min 2 min 86 W/m 22,5 km/h (4 Bft) 96,36 %
09.04.2022 12:34 4,8 C 3,9 C 0,6 C 83 % 1012,7 hPa 0,0 l/m 0 min 2 min 106 W/m 16,1 km/h (3 Bft) 95,65 %
09.04.2022 12:36 4,7 C 4,4 C 0,6 C 84 % 1012,7 hPa 0,0 l/m 0 min 0 min 79 W/m 22,5 km/h (4 Bft) 100,00 %
09.04.2022 12:38 4,7 C 4,4 C 0,6 C 85 % 1012,7 hPa 0,0 l/m 0 min 2 min 57 W/m 22,5 km/h (4 Bft) 93,62 %
09.04.2022 12:40 4,7 C 4,4 C 0,6 C 85 % 1012,8 hPa 0,0 l/m 0 min 0 min 67 W/m 19,3 km/h (3 Bft) 95,74 %
09.04.2022 12:42 4,8 C 4,4 C 0,6 C 86 % 1012,8 hPa 0,0 l/m 0 min 2 min 67 W/m 25,7 km/h (4 Bft) 93,62 %
09.04.2022 12:44 4,8 C 4,4 C 0,6 C 86 % 1012,6 hPa 0,2 l/m 0 min 2 min 61 W/m 22,5 km/h (4 Bft) 93,62 %
09.04.2022 12:46 5,0 C 5,0 C 1,1 C 86 % 1012,5 hPa 0,0 l/m 0 min 2 min 65 W/m 16,1 km/h (3 Bft) 87,50 %
09.04.2022 12:48 5,1 C 5,0 C 1,7 C 86 % 1012,4 hPa 0,0 l/m 0 min 2 min 83 W/m 12,9 km/h (3 Bft) 93,48 %
09.04.2022 12:50 5,3 C 5,6 C 1,7 C 87 % 1012,4 hPa 0,0 l/m 0 min 0 min 118 W/m 12,9 km/h (3 Bft) 92,73 %
09.04.2022 12:52 5,4 C 6,7 C 2,8 C 87 % 1012,5 hPa 0,0 l/m 0 min 0 min 226 W/m 12,9 km/h (3 Bft) 93,62 %
09.04.2022 12:54 5,7 C 8,3 C 3,9 C 88 % 1012,5 hPa 0,0 l/m 2 min 0 min 795 W/m 12,9 km/h (3 Bft) 93,62 %
09.04.2022 12:56 6,1 C 9,4 C 4,4 C 88 % 1012,5 hPa 0,0 l/m 2 min 0 min 788 W/m 12,9 km/h (3 Bft) 94,74 %
09.04.2022 12:58 6,5 C 10,6 C 5,0 C 88 % 1012,6 hPa 0,0 l/m 2 min 0 min 757 W/m 29,0 km/h (5 Bft) 95,74 %
09.04.2022 13:00 6,8 C 10,6 C 5,0 C 88 % 1012,5 hPa 0,0 l/m 2 min 0 min 728 W/m 32,2 km/h (5 Bft) 95,65 %
09.04.2022 13:02 7,1 C 11,1 C 5,6 C 88 % 1012,5 hPa 0,0 l/m 2 min 0 min 782 W/m 25,7 km/h (4 Bft) 93,62 %
09.04.2022 13:04 7,3 C 11,1 C 6,1 C 87 % 1012,5 hPa 0,0 l/m 2 min 0 min 789 W/m 22,5 km/h (4 Bft) 93,62 %
09.04.2022 13:06 7,7 C 11,7 C 6,1 C 87 % 1012,5 hPa 0,0 l/m 2 min 0 min 797 W/m 22,5 km/h (4 Bft) 95,74 %
09.04.2022 13:08 8,0 C 11,7 C 5,6 C 86 % 1012,4 hPa 0,0 l/m 2 min 0 min 806 W/m 16,1 km/h (3 Bft) 96,43 %
09.04.2022 13:10 8,3 C 12,2 C 6,1 C 86 % 1012,4 hPa 0,0 l/m 2 min 0 min 807 W/m 19,3 km/h (3 Bft) 97,87 %
09.04.2022 13:12 8,5 C 11,7 C 6,1 C 84 % 1012,4 hPa 0,0 l/m 2 min 0 min 820 W/m 22,5 km/h (4 Bft) 95,74 %
09.04.2022 13:14 8,7 C 11,7 C 6,1 C 82 % 1012,5 hPa 0,0 l/m 2 min 0 min 680 W/m 19,3 km/h (3 Bft) 97,87 %
09.04.2022 13:16 8,8 C 11,7 C 6,1 C 81 % 1012,4 hPa 0,0 l/m 2 min 0 min 801 W/m 19,3 km/h (3 Bft) 97,14 %
09.04.2022 13:18 9,0 C 11,7 C 6,1 C 80 % 1012,4 hPa 0,0 l/m 2 min 0 min 790 W/m 22,5 km/h (4 Bft) 94,74 %
09.04.2022 13:20 9,2 C 12,2 C 6,7 C 80 % 1012,3 hPa 0,0 l/m 2 min 0 min 777 W/m 19,3 km/h (3 Bft) 97,87 %
09.04.2022 13:22 9,4 C 12,2 C 6,7 C 78 % 1012,4 hPa 0,0 l/m 2 min 0 min 763 W/m 32,2 km/h (5 Bft) 95,65 %
09.04.2022 13:24 9,6 C 12,2 C 6,7 C 74 % 1012,4 hPa 0,0 l/m 2 min 0 min 809 W/m 22,5 km/h (4 Bft) 95,74 %
09.04.2022 13:26 9,7 C 12,2 C 6,7 C 73 % 1012,3 hPa 0,0 l/m 2 min 0 min 809 W/m 29,0 km/h (5 Bft) 97,87 %
09.04.2022 13:28 9,8 C 12,8 C 6,7 C 72 % 1012,3 hPa 0,0 l/m 2 min 0 min 809 W/m 22,5 km/h (4 Bft) 97,87 %
09.04.2022 13:30 9,9 C 12,8 C 6,7 C 70 % 1012,4 hPa 0,0 l/m 2 min 0 min 815 W/m 25,7 km/h (4 Bft) 95,74 %
09.04.2022 13:32 10,1 C 12,8 C 7,2 C 70 % 1012,3 hPa 0,0 l/m 2 min 0 min 841 W/m 25,7 km/h (4 Bft) 97,83 %
09.04.2022 13:34 10,2 C 13,3 C 7,8 C 69 % 1012,2 hPa 0,0 l/m 2 min 0 min 832 W/m 25,7 km/h (4 Bft) 97,87 %
09.04.2022 13:36 10,3 C 13,9 C 7,8 C 68 % 1012,3 hPa 0,0 l/m 2 min 0 min 822 W/m 32,2 km/h (5 Bft) 100,00 %
09.04.2022 13:38 10,3 C 13,9 C 7,8 C 68 % 1012,3 hPa 0,0 l/m 2 min 0 min 822 W/m 25,7 km/h (4 Bft) 95,74 %
09.04.2022 13:40 10,4 C 13,9 C 7,8 C 68 % 1012,3 hPa 0,0 l/m 2 min 0 min 818 W/m 19,3 km/h (3 Bft) 100,00 %
09.04.2022 13:42 10,6 C 13,9 C 8,3 C 69 % 1012,3 hPa 0,0 l/m 2 min 0 min 820 W/m 25,7 km/h (4 Bft) 100,00 %
09.04.2022 13:44 10,7 C 14,4 C 8,3 C 68 % 1012,3 hPa 0,0 l/m 2 min 0 min 852 W/m 25,7 km/h (4 Bft) 100,00 %
09.04.2022 13:46 10,8 C 15,0 C 7,8 C 67 % 1012,3 hPa 0,0 l/m 2 min 0 min 881 W/m 19,3 km/h (3 Bft) 100,00 %
09.04.2022 13:48 10,9 C 14,4 C 7,8 C 65 % 1012,3 hPa 0,0 l/m 2 min 0 min 960 W/m 19,3 km/h (3 Bft) 97,87 %
09.04.2022 13:50 11,0 C 14,4 C 7,8 C 65 % 1012,3 hPa 0,0 l/m 2 min 0 min 996 W/m 22,5 km/h (4 Bft) 95,74 %
09.04.2022 13:52 11,1 C 14,4 C 7,8 C 66 % 1012,2 hPa 0,0 l/m 2 min 0 min 997 W/m 22,5 km/h (4 Bft) 97,87 %
09.04.2022 13:54 11,1 C 12,2 C 7,2 C 63 % 1012,3 hPa 0,0 l/m 2 min 0 min 409 W/m 38,6 km/h (5 Bft) 100,00 %
09.04.2022 13:56 10,8 C 11,1 C 6,7 C 63 % 1012,3 hPa 0,0 l/m 0 min 0 min 236 W/m 29,0 km/h (5 Bft) 100,00 %
09.04.2022 13:58 10,5 C 10,6 C 6,7 C 63 % 1012,4 hPa 0,0 l/m 0 min 0 min 171 W/m 22,5 km/h (4 Bft) 100,00 %
09.04.2022 14:00 10,3 C 10,0 C 6,1 C 64 % 1012,5 hPa 0,0 l/m 0 min 0 min 158 W/m 32,2 km/h (5 Bft) 100,00 %
09.04.2022 14:02 10,1 C 9,4 C 5,6 C 65 % 1012,5 hPa 0,0 l/m 0 min 0 min 198 W/m 22,5 km/h (4 Bft) 97,87 %
09.04.2022 14:04 9,9 C 9,4 C 5,6 C 66 % 1012,5 hPa 0,0 l/m 0 min 0 min 242 W/m 32,2 km/h (5 Bft) 97,87 %
09.04.2022 14:06 9,8 C 10,6 C 5,6 C 66 % 1012,4 hPa 0,0 l/m 0 min 0 min 272 W/m 35,4 km/h (5 Bft) 100,00 %
09.04.2022 14:08 9,8 C 12,2 C 6,1 C 67 % 1012,5 hPa 0,0 l/m 2 min 0 min 804 W/m 22,5 km/h (4 Bft) 97,83 %
09.04.2022 14:10 9,9 C 13,9 C 6,1 C 67 % 1012,4 hPa 0,0 l/m 2 min 0 min 854 W/m 22,5 km/h (4 Bft) 100,00 %
09.04.2022 14:12 10,1 C 14,4 C 6,7 C 67 % 1012,4 hPa 0,0 l/m 2 min 0 min 862 W/m 29,0 km/h (5 Bft) 100,00 %
09.04.2022 14:14 10,3 C 15,6 C 6,7 C 66 % 1012,5 hPa 0,0 l/m 2 min 0 min 872 W/m 25,7 km/h (4 Bft) 100,00 %
09.04.2022 14:16 10,6 C 15,6 C 6,7 C 65 % 1012,4 hPa 0,0 l/m 2 min 0 min 884 W/m 19,3 km/h (3 Bft) 100,00 %
09.04.2022 14:18 10,7 C 16,1 C 7,2 C 64 % 1012,4 hPa 0,0 l/m 2 min 0 min 929 W/m 29,0 km/h (5 Bft) 100,00 %
09.04.2022 14:20 10,9 C 16,1 C 7,2 C 62 % 1012,4 hPa 0,0 l/m 2 min 0 min 929 W/m 22,5 km/h (4 Bft) 100,00 %
09.04.2022 14:22 11,2 C 15,6 C 7,2 C 63 % 1012,4 hPa 0,0 l/m 2 min 0 min 877 W/m 22,5 km/h (4 Bft) 100,00 %
09.04.2022 14:24 11,3 C 16,1 C 7,8 C 61 % 1012,5 hPa 0,0 l/m 2 min 0 min 964 W/m 32,2 km/h (5 Bft) 100,00 %
09.04.2022 14:26 11,4 C 15,6 C 7,8 C 58 % 1012,5 hPa 0,0 l/m 2 min 0 min 995 W/m 25,7 km/h (4 Bft) 100,00 %
09.04.2022 14:28 11,4 C 13,9 C 7,2 C 58 % 1012,5 hPa 0,0 l/m 2 min 0 min 823 W/m 32,2 km/h (5 Bft) 97,87 %
09.04.2022 14:30 11,3 C 13,3 C 7,2 C 58 % 1012,5 hPa 0,0 l/m 0 min 0 min 296 W/m 35,4 km/h (5 Bft) 97,87 %
09.04.2022 14:32 11,2 C 13,3 C 7,2 C 57 % 1012,6 hPa 0,0 l/m 0 min 0 min 287 W/m 38,6 km/h (5 Bft) 100,00 %
09.04.2022 14:34 11,2 C 13,9 C 7,2 C 57 % 1012,5 hPa 0,0 l/m 2 min 0 min 477 W/m 29,0 km/h (5 Bft) 97,87 %
09.04.2022 14:36 11,1 C 12,2 C 7,2 C 56 % 1012,5 hPa 0,0 l/m 2 min 0 min 981 W/m 38,6 km/h (5 Bft) 100,00 %
09.04.2022 14:38 10,9 C 11,7 C 6,7 C 57 % 1012,5 hPa 0,0 l/m 0 min 0 min 127 W/m 22,5 km/h (4 Bft) 97,87 %
09.04.2022 14:40 10,7 C 10,6 C 6,1 C 55 % 1012,6 hPa 0,0 l/m 0 min 0 min 152 W/m 25,7 km/h (4 Bft) 97,87 %
09.04.2022 14:42 10,5 C 11,1 C 6,1 C 55 % 1012,6 hPa 0,0 l/m 0 min 0 min 177 W/m 22,5 km/h (4 Bft) 97,87 %
09.04.2022 14:44 10,4 C 12,2 C 6,7 C 56 % 1012,5 hPa 0,0 l/m 2 min 0 min 441 W/m 35,4 km/h (5 Bft) 97,83 %
09.04.2022 14:46 10,6 C 13,9 C 6,7 C 56 % 1012,6 hPa 0,0 l/m 2 min 0 min 961 W/m 32,2 km/h (5 Bft) 97,87 %
09.04.2022 14:48 10,8 C 14,4 C 7,2 C 57 % 1012,7 hPa 0,0 l/m 2 min 0 min 924 W/m 25,7 km/h (4 Bft) 97,87 %
09.04.2022 14:50 10,9 C 13,3 C 6,7 C 57 % 1012,8 hPa 0,0 l/m 2 min 0 min 533 W/m 22,5 km/h (4 Bft) 93,62 %
09.04.2022 14:52 10,8 C 11,7 C 6,7 C 55 % 1012,6 hPa 0,0 l/m 0 min 0 min 212 W/m 25,7 km/h (4 Bft) 97,87 %
09.04.2022 14:54 10,7 C 11,1 C 6,7 C 56 % 1012,7 hPa 0,0 l/m 0 min 0 min 221 W/m 29,0 km/h (5 Bft) 97,87 %
09.04.2022 14:56 10,7 C 12,8 C 6,7 C 55 % 1012,7 hPa 0,0 l/m 2 min 0 min 637 W/m 32,2 km/h (5 Bft) 95,65 %
09.04.2022 14:58 10,8 C 14,4 C 6,7 C 56 % 1012,7 hPa 0,0 l/m 2 min 0 min 909 W/m 29,0 km/h (5 Bft) 97,87 %
09.04.2022 15:00 10,9 C 13,9 C 6,7 C 55 % 1012,7 hPa 0,0 l/m 2 min 0 min 939 W/m 25,7 km/h (4 Bft) 97,87 %
09.04.2022 15:02 10,9 C 14,4 C 6,7 C 54 % 1012,7 hPa 0,0 l/m 2 min 0 min 920 W/m 38,6 km/h (5 Bft) 97,87 %
09.04.2022 15:04 11,0 C 13,9 C 6,7 C 53 % 1012,6 hPa 0,0 l/m 2 min 0 min 833 W/m 32,2 km/h (5 Bft) 97,87 %
09.04.2022 15:06 11,1 C 14,4 C 6,7 C 54 % 1012,6 hPa 0,0 l/m 2 min 0 min 813 W/m 32,2 km/h (5 Bft) 97,87 %
09.04.2022 15:08 11,1 C 14,4 C 7,2 C 54 % 1012,7 hPa 0,0 l/m 2 min 0 min 809 W/m 41,8 km/h (6 Bft) 97,83 %
09.04.2022 15:10 11,2 C 14,4 C 7,2 C 54 % 1012,6 hPa 0,0 l/m 2 min 0 min 800 W/m 25,7 km/h (4 Bft) 100,00 %
09.04.2022 15:12 11,3 C 14,4 C 7,2 C 55 % 1012,6 hPa 0,0 l/m 2 min 0 min 811 W/m 19,3 km/h (3 Bft) 97,87 %
09.04.2022 15:14 11,3 C 12,8 C 6,7 C 53 % 1012,7 hPa 0,0 l/m 2 min 0 min 391 W/m 29,0 km/h (5 Bft) 100,00 %
09.04.2022 15:16 11,1 C 12,8 C 6,7 C 52 % 1012,6 hPa 0,0 l/m 0 min 0 min 172 W/m 32,2 km/h (5 Bft) 100,00 %
09.04.2022 15:18 11,1 C 13,3 C 6,7 C 52 % 1012,7 hPa 0,0 l/m 2 min 0 min 489 W/m 22,5 km/h (4 Bft) 100,00 %
09.04.2022 15:20 11,1 C 13,9 C 6,7 C 53 % 1012,7 hPa 0,0 l/m 2 min 0 min 793 W/m 32,2 km/h (5 Bft) 97,87 %
09.04.2022 15:22 11,2 C 14,4 C 6,7 C 53 % 1012,7 hPa 0,0 l/m 2 min 0 min 782 W/m 22,5 km/h (4 Bft) 100,00 %
09.04.2022 15:24 11,3 C 13,9 C 6,7 C 52 % 1012,7 hPa 0,0 l/m 2 min 0 min 757 W/m 45,1 km/h (6 Bft) 100,00 %
09.04.2022 15:26 11,2 C 13,9 C 6,7 C 51 % 1012,7 hPa 0,0 l/m 2 min 0 min 760 W/m 25,7 km/h (4 Bft) 100,00 %
09.04.2022 15:28 11,3 C 14,4 C 6,7 C 54 % 1012,8 hPa 0,0 l/m 2 min 0 min 774 W/m 22,5 km/h (4 Bft) 100,00 %
09.04.2022 15:30 11,4 C 15,0 C 7,2 C 54 % 1012,8 hPa 0,0 l/m 2 min 0 min 807 W/m 32,2 km/h (5 Bft) 100,00 %
09.04.2022 15:32 11,6 C 15,0 C 7,2 C 53 % 1012,7 hPa 0,0 l/m 2 min 0 min 829 W/m 32,2 km/h (5 Bft) 100,00 %
09.04.2022 15:34 11,6 C 15,6 C 7,2 C 52 % 1012,7 hPa 0,0 l/m 2 min 0 min 829 W/m 22,5 km/h (4 Bft) 100,00 %
09.04.2022 15:36 11,7 C 15,0 C 7,2 C 52 % 1012,8 hPa 0,0 l/m 2 min 0 min 802 W/m 29,0 km/h (5 Bft) 100,00 %
09.04.2022 15:38 11,8 C 15,0 C 7,2 C 52 % 1012,8 hPa 0,0 l/m 2 min 0 min 792 W/m 22,5 km/h (4 Bft) 100,00 %
09.04.2022 15:40 11,8 C 15,0 C 7,2 C 51 % 1012,8 hPa 0,0 l/m 2 min 0 min 828 W/m 29,0 km/h (5 Bft) 97,87 %
09.04.2022 15:42 11,8 C 13,9 C 7,2 C 51 % 1012,7 hPa 0,0 l/m 2 min 0 min 844 W/m 35,4 km/h (5 Bft) 97,83 %
09.04.2022 15:44 11,7 C 12,8 C 7,2 C 50 % 1012,8 hPa 0,0 l/m 2 min 0 min 662 W/m 25,7 km/h (4 Bft) 97,87 %
09.04.2022 15:46 11,6 C 13,3 C 7,2 C 51 % 1012,9 hPa 0,0 l/m 2 min 0 min 571 W/m 32,2 km/h (5 Bft) 97,87 %
09.04.2022 15:48 11,6 C 13,3 C 7,2 C 53 % 1012,9 hPa 0,0 l/m 0 min 0 min 242 W/m 32,2 km/h (5 Bft) 97,87 %
09.04.2022 15:50 11,4 C 13,3 C 7,2 C 51 % 1012,9 hPa 0,0 l/m 0 min 0 min 229 W/m 35,4 km/h (5 Bft) 97,87 %
09.04.2022 15:52 11,4 C 13,9 C 7,2 C 51 % 1012,9 hPa 0,0 l/m 2 min 0 min 792 W/m 41,8 km/h (6 Bft) 97,87 %
09.04.2022 15:54 11,2 C 12,2 C 7,2 C 52 % 1013,0 hPa 0,0 l/m 2 min 0 min 789 W/m 32,2 km/h (5 Bft) 95,65 %
09.04.2022 15:56 11,1 C 11,7 C 6,7 C 52 % 1013,0 hPa 0,0 l/m 0 min 0 min 175 W/m 22,5 km/h (4 Bft) 97,87 %
09.04.2022 15:58 10,8 C 10,6 C 6,7 C 52 % 1013,0 hPa 0,0 l/m 0 min 0 min 155 W/m 29,0 km/h (5 Bft) 97,87 %
09.04.2022 16:00 10,7 C 10,6 C 6,1 C 54 % 1013,0 hPa 0,0 l/m 0 min 0 min 183 W/m 25,7 km/h (4 Bft) 97,87 %
09.04.2022 16:02 10,5 C 10,0 C 6,1 C 58 % 1013,0 hPa 0,0 l/m 0 min 0 min 143 W/m 22,5 km/h (4 Bft) 97,87 %
09.04.2022 16:04 10,4 C 10,0 C 5,6 C 60 % 1013,1 hPa 0,0 l/m 0 min 0 min 121 W/m 32,2 km/h (5 Bft) 97,87 %
09.04.2022 16:06 10,3 C 11,1 C 5,6 C 62 % 1013,1 hPa 0,0 l/m 0 min 0 min 155 W/m 29,0 km/h (5 Bft) 97,83 %
09.04.2022 16:08 10,2 C 12,2 C 6,1 C 63 % 1013,1 hPa 0,0 l/m 0 min 0 min 244 W/m 32,2 km/h (5 Bft) 97,87 %
09.04.2022 16:10 10,3 C 14,4 C 6,7 C 63 % 1013,1 hPa 0,0 l/m 2 min 0 min 434 W/m 29,0 km/h (5 Bft) 97,87 %
09.04.2022 16:12 10,3 C 12,8 C 6,1 C 62 % 1013,1 hPa 0,0 l/m 2 min 0 min 558 W/m 29,0 km/h (5 Bft) 93,62 %
09.04.2022 16:14 10,2 C 11,7 C 6,1 C 62 % 1013,1 hPa 0,0 l/m 0 min 0 min 139 W/m 38,6 km/h (5 Bft) 95,74 %
09.04.2022 16:16 10,2 C 12,2 C 6,1 C 62 % 1013,1 hPa 0,0 l/m 0 min 0 min 142 W/m 32,2 km/h (5 Bft) 97,87 %
09.04.2022 16:18 10,2 C 11,7 C 6,1 C 61 % 1013,2 hPa 0,0 l/m 0 min 0 min 139 W/m 29,0 km/h (5 Bft) 97,83 %
09.04.2022 16:20 10,1 C 11,7 C 6,1 C 61 % 1013,2 hPa 0,0 l/m 0 min 0 min 135 W/m 32,2 km/h (5 Bft) 97,87 %
09.04.2022 16:22 10,1 C 11,1 C 6,1 C 62 % 1013,3 hPa 0,0 l/m 0 min 0 min 178 W/m 35,4 km/h (5 Bft) 97,87 %
09.04.2022 16:24 10,2 C 12,2 C 6,1 C 62 % 1013,2 hPa 0,0 l/m 0 min 0 min 146 W/m 25,7 km/h (4 Bft) 97,92 %
09.04.2022 16:26 10,2 C 14,4 C 6,1 C 64 % 1013,2 hPa 0,0 l/m 0 min 0 min 146 W/m 19,3 km/h (3 Bft) 95,74 %
09.04.2022 16:28 10,3 C 14,4 C 6,7 C 63 % 1013,2 hPa 0,0 l/m 2 min 0 min 532 W/m 19,3 km/h (3 Bft) 95,74 %
09.04.2022 16:30 10,4 C 12,2 C 6,7 C 62 % 1013,1 hPa 0,0 l/m 2 min 0 min 485 W/m 19,3 km/h (3 Bft) 97,83 %
09.04.2022 16:32 10,4 C 11,7 C 6,7 C 62 % 1013,1 hPa 0,0 l/m 0 min 0 min 214 W/m 25,7 km/h (4 Bft) 100,00 %
09.04.2022 16:34 10,4 C 12,8 C 6,7 C 62 % 1013,2 hPa 0,0 l/m 2 min 0 min 330 W/m 35,4 km/h (5 Bft) 100,00 %
09.04.2022 16:36 10,4 C 13,3 C 6,7 C 60 % 1013,2 hPa 0,0 l/m 2 min 0 min 513 W/m 29,0 km/h (5 Bft) 100,00 %
09.04.2022 16:38 10,4 C 13,3 C 6,7 C 60 % 1013,2 hPa 0,0 l/m 2 min 0 min 480 W/m 19,3 km/h (3 Bft) 95,74 %
09.04.2022 16:40 10,5 C 13,3 C 6,7 C 59 % 1013,2 hPa 0,0 l/m 2 min 0 min 463 W/m 22,5 km/h (4 Bft) 95,74 %
09.04.2022 16:42 10,6 C 13,3 C 6,7 C 60 % 1013,2 hPa 0,0 l/m 2 min 0 min 480 W/m 25,7 km/h (4 Bft) 100,00 %
09.04.2022 16:44 10,7 C 13,3 C 6,7 C 60 % 1013,2 hPa 0,0 l/m 2 min 0 min 462 W/m 16,1 km/h (3 Bft) 100,00 %
09.04.2022 16:46 10,7 C 13,9 C 6,7 C 60 % 1013,2 hPa 0,0 l/m 2 min 0 min 456 W/m 19,3 km/h (3 Bft) 97,87 %
09.04.2022 16:48 10,8 C 13,9 C 6,7 C 59 % 1013,3 hPa 0,0 l/m 2 min 0 min 483 W/m 32,2 km/h (5 Bft) 100,00 %
09.04.2022 16:50 10,8 C 13,9 C 6,7 C 56 % 1013,3 hPa 0,0 l/m 2 min 0 min 550 W/m 25,7 km/h (4 Bft) 93,62 %
09.04.2022 16:52 10,8 C 13,3 C 6,7 C 55 % 1013,3 hPa 0,0 l/m 2 min 0 min 572 W/m 22,5 km/h (4 Bft) 100,00 %
09.04.2022 16:54 10,9 C 13,9 C 6,7 C 56 % 1013,3 hPa 0,0 l/m 2 min 0 min 572 W/m 22,5 km/h (4 Bft) 95,74 %
09.04.2022 16:56 10,9 C 13,9 C 6,7 C 55 % 1013,3 hPa 0,0 l/m 2 min 0 min 562 W/m 35,4 km/h (5 Bft) 95,74 %
09.04.2022 16:58 10,9 C 14,4 C 7,2 C 56 % 1013,4 hPa 0,0 l/m 2 min 0 min 589 W/m 32,2 km/h (5 Bft) 95,74 %
09.04.2022 17:00 10,9 C 14,4 C 7,2 C 55 % 1013,5 hPa 0,0 l/m 2 min 0 min 558 W/m 35,4 km/h (5 Bft) 95,74 %
09.04.2022 17:02 10,9 C 13,9 C 7,2 C 54 % 1013,5 hPa 0,0 l/m 2 min 0 min 379 W/m 32,2 km/h (5 Bft) 95,74 %
09.04.2022 17:04 10,9 C 14,4 C 7,2 C 54 % 1013,4 hPa 0,0 l/m 2 min 0 min 341 W/m 22,5 km/h (4 Bft) 95,65 %
09.04.2022 17:06 11,0 C 15,0 C 7,2 C 57 % 1013,5 hPa 0,0 l/m 2 min 0 min 418 W/m 25,7 km/h (4 Bft) 93,62 %
09.04.2022 17:08 11,1 C 15,0 C 7,2 C 59 % 1013,5 hPa 0,0 l/m 2 min 0 min 543 W/m 32,2 km/h (5 Bft) 95,74 %
09.04.2022 17:10 11,1 C 13,9 C 7,2 C 59 % 1013,5 hPa 0,0 l/m 2 min 0 min 488 W/m 32,2 km/h (5 Bft) 95,74 %
09.04.2022 17:12 11,1 C 12,8 C 7,2 C 59 % 1013,5 hPa 0,0 l/m 2 min 0 min 395 W/m 38,6 km/h (5 Bft) 95,74 %
09.04.2022 17:14 10,9 C 11,7 C 7,2 C 59 % 1013,5 hPa 0,0 l/m 0 min 0 min 152 W/m 25,7 km/h (4 Bft) 95,74 %
09.04.2022 17:16 10,8 C 10,6 C 6,7 C 58 % 1013,5 hPa 0,0 l/m 0 min 0 min 124 W/m 32,2 km/h (5 Bft) 95,65 %
09.04.2022 17:18 10,7 C 10,6 C 6,1 C 59 % 1013,6 hPa 0,0 l/m 0 min 0 min 127 W/m 32,2 km/h (5 Bft) 95,74 %
09.04.2022 17:20 10,6 C 10,0 C 6,1 C 58 % 1013,6 hPa 0,0 l/m 0 min 0 min 156 W/m 32,2 km/h (5 Bft) 95,74 %
09.04.2022 17:22 10,4 C 11,7 C 6,1 C 59 % 1013,6 hPa 0,0 l/m 0 min 0 min 214 W/m 19,3 km/h (3 Bft) 93,62 %
09.04.2022 17:24 10,3 C 11,1 C 6,1 C 58 % 1013,6 hPa 0,0 l/m 2 min 0 min 369 W/m 35,4 km/h (5 Bft) 95,74 %
09.04.2022 17:26 10,2 C 10,6 C 6,1 C 57 % 1013,6 hPa 0,0 l/m 0 min 0 min 198 W/m 29,0 km/h (5 Bft) 93,62 %
09.04.2022 17:28 10,2 C 10,6 C 6,1 C 56 % 1013,7 hPa 0,0 l/m 0 min 0 min 180 W/m 22,5 km/h (4 Bft) 95,65 %
09.04.2022 17:30 10,1 C 10,0 C 6,1 C 55 % 1013,7 hPa 0,0 l/m 0 min 0 min 183 W/m 32,2 km/h (5 Bft) 93,62 %
09.04.2022 17:32 10,1 C 10,6 C 6,1 C 56 % 1013,7 hPa 0,0 l/m 2 min 0 min 255 W/m 32,2 km/h (5 Bft) 95,74 %
09.04.2022 17:34 10,0 C 11,1 C 6,1 C 56 % 1013,7 hPa 0,0 l/m 2 min 0 min 291 W/m 22,5 km/h (4 Bft) 95,74 %
09.04.2022 17:36 10,1 C 11,7 C 6,1 C 56 % 1013,6 hPa 0,0 l/m 2 min 0 min 296 W/m 29,0 km/h (5 Bft) 97,87 %
09.04.2022 17:38 10,1 C 11,1 C 6,1 C 54 % 1013,7 hPa 0,0 l/m 2 min 0 min 261 W/m 25,7 km/h (4 Bft) 97,87 %
09.04.2022 17:40 10,0 C 10,6 C 6,1 C 54 % 1013,7 hPa 0,0 l/m 2 min 0 min 226 W/m 22,5 km/h (4 Bft) 97,83 %
09.04.2022 17:42 10,0 C 10,6 C 6,1 C 54 % 1013,7 hPa 0,0 l/m 2 min 0 min 221 W/m 29,0 km/h (5 Bft) 97,87 %
09.04.2022 17:44 9,9 C 10,6 C 6,1 C 54 % 1013,7 hPa 0,0 l/m 2 min 0 min 212 W/m 19,3 km/h (3 Bft) 94,74 %
09.04.2022 17:46 9,9 C 10,6 C 6,1 C 55 % 1013,8 hPa 0,0 l/m 2 min 0 min 205 W/m 35,4 km/h (5 Bft) 97,87 %
09.04.2022 17:48 9,9 C 10,0 C 6,1 C 55 % 1013,8 hPa 0,0 l/m 2 min 0 min 201 W/m 19,3 km/h (3 Bft) 97,87 %
09.04.2022 17:50 9,9 C 10,0 C 5,6 C 57 % 1013,8 hPa 0,0 l/m 2 min 0 min 199 W/m 22,5 km/h (4 Bft) 97,87 %
09.04.2022 17:52 9,9 C 10,6 C 6,1 C 59 % 1013,8 hPa 0,0 l/m 2 min 0 min 231 W/m 12,9 km/h (3 Bft) 97,83 %
09.04.2022 17:54 9,9 C 11,1 C 6,1 C 60 % 1013,9 hPa 0,0 l/m 2 min 0 min 216 W/m 25,7 km/h (4 Bft) 100,00 %
09.04.2022 17:56 9,9 C 11,1 C 6,1 C 60 % 1013,9 hPa 0,0 l/m 2 min 0 min 222 W/m 25,7 km/h (4 Bft) 97,87 %
09.04.2022 17:58 9,9 C 11,1 C 6,1 C 60 % 1013,8 hPa 0,0 l/m 2 min 0 min 210 W/m 19,3 km/h (3 Bft) 97,87 %
09.04.2022 18:00 9,9 C 11,7 C 6,1 C 59 % 1014,0 hPa 0,0 l/m 2 min 0 min 288 W/m 29,0 km/h (5 Bft) 100,00 %
09.04.2022 18:02 9,9 C 11,7 C 6,1 C 59 % 1013,9 hPa 0,0 l/m 2 min 0 min 296 W/m 32,2 km/h (5 Bft) 100,00 %
09.04.2022 18:04 9,9 C 11,1 C 6,1 C 59 % 1013,9 hPa 0,0 l/m 2 min 0 min 182 W/m 22,5 km/h (4 Bft) 100,00 %
09.04.2022 18:08 9,8 C 10,0 C 5,6 C 55 % 1013,9 hPa 0,0 l/m 0 min 0 min 151 W/m 29,0 km/h (5 Bft) 98,94 %
09.04.2022 18:10 9,8 C 10,0 C 5,6 C 55 % 1013,9 hPa 0,0 l/m 0 min 0 min 139 W/m 19,3 km/h (3 Bft) 97,87 %
09.04.2022 18:12 9,7 C 10,6 C 5,6 C 55 % 1013,9 hPa 0,0 l/m 2 min 0 min 196 W/m 29,0 km/h (5 Bft) 100,00 %
09.04.2022 18:14 9,7 C 10,0 C 5,6 C 55 % 1013,8 hPa 0,0 l/m 2 min 0 min 175 W/m 22,5 km/h (4 Bft) 97,87 %
09.04.2022 18:16 9,7 C 10,0 C 5,6 C 54 % 1013,9 hPa 0,0 l/m 2 min 0 min 170 W/m 38,6 km/h (5 Bft) 100,00 %
09.04.2022 18:18 9,7 C 10,0 C 5,6 C 55 % 1013,9 hPa 0,0 l/m 2 min 0 min 158 W/m 32,2 km/h (5 Bft) 97,87 %
09.04.2022 18:20 9,7 C 10,0 C 5,6 C 55 % 1014,0 hPa 0,0 l/m 0 min 0 min 130 W/m 25,7 km/h (4 Bft) 100,00 %
09.04.2022 18:22 9,6 C 10,0 C 5,6 C 55 % 1013,9 hPa 0,0 l/m 0 min 0 min 119 W/m 19,3 km/h (3 Bft) 100,00 %
09.04.2022 18:24 9,6 C 9,4 C 5,6 C 55 % 1014,0 hPa 0,0 l/m 0 min 0 min 123 W/m 19,3 km/h (3 Bft) 100,00 %
09.04.2022 18:26 9,5 C 9,4 C 5,6 C 55 % 1013,9 hPa 0,0 l/m 0 min 0 min 106 W/m 19,3 km/h (3 Bft) 100,00 %
09.04.2022 18:28 9,4 C 9,4 C 5,0 C 56 % 1014,0 hPa 0,0 l/m 0 min 0 min 98 W/m 19,3 km/h (3 Bft) 97,83 %
09.04.2022 18:30 9,4 C 9,4 C 5,0 C 58 % 1014,0 hPa 0,0 l/m 0 min 0 min 96 W/m 16,1 km/h (3 Bft) 100,00 %
09.04.2022 18:32 9,4 C 8,9 C 5,0 C 58 % 1014,0 hPa 0,0 l/m 0 min 0 min 89 W/m 19,3 km/h (3 Bft) 97,87 %
09.04.2022 18:34 9,3 C 8,9 C 5,0 C 58 % 1014,2 hPa 0,0 l/m 0 min 0 min 89 W/m 22,5 km/h (4 Bft) 93,62 %
09.04.2022 18:36 9,3 C 8,9 C 5,0 C 58 % 1014,1 hPa 0,0 l/m 0 min 0 min 91 W/m 16,1 km/h (3 Bft) 95,74 %
09.04.2022 18:38 9,2 C 8,9 C 5,0 C 58 % 1014,2 hPa 0,0 l/m 0 min 0 min 91 W/m 19,3 km/h (3 Bft) 100,00 %
09.04.2022 18:40 9,2 C 8,9 C 5,0 C 58 % 1014,2 hPa 0,0 l/m 0 min 0 min 91 W/m 19,3 km/h (3 Bft) 97,87 %
09.04.2022 18:42 9,2 C 8,9 C 5,0 C 58 % 1014,2 hPa 0,0 l/m 0 min 0 min 91 W/m 19,3 km/h (3 Bft) 97,87 %
09.04.2022 18:44 9,1 C 8,9 C 5,0 C 57 % 1014,2 hPa 0,0 l/m 0 min 0 min 89 W/m 22,5 km/h (4 Bft) 95,74 %
09.04.2022 18:46 9,1 C 8,3 C 5,0 C 56 % 1014,2 hPa 0,0 l/m 0 min 0 min 86 W/m 32,2 km/h (5 Bft) 98,11 %
09.04.2022 18:48 9,1 C 8,3 C 5,0 C 56 % 1014,2 hPa 0,0 l/m 0 min 0 min 82 W/m 22,5 km/h (4 Bft) 93,62 %
09.04.2022 18:50 9,1 C 8,3 C 5,0 C 56 % 1014,3 hPa 0,0 l/m 0 min 0 min 79 W/m 25,7 km/h (4 Bft) 97,83 %
09.04.2022 18:52 9,0 C 8,3 C 5,0 C 56 % 1014,3 hPa 0,0 l/m 0 min 0 min 78 W/m 22,5 km/h (4 Bft) 95,74 %
09.04.2022 18:54 8,9 C 8,3 C 5,0 C 56 % 1014,3 hPa 0,0 l/m 0 min 0 min 76 W/m 19,3 km/h (3 Bft) 97,87 %
09.04.2022 18:56 8,9 C 8,3 C 4,4 C 56 % 1014,3 hPa 0,0 l/m 0 min 0 min 74 W/m 16,1 km/h (3 Bft) 97,87 %
09.04.2022 18:58 8,9 C 8,3 C 4,4 C 56 % 1014,3 hPa 0,0 l/m 0 min 0 min 71 W/m 25,7 km/h (4 Bft) 93,62 %
09.04.2022 19:00 8,8 C 8,3 C 4,4 C 56 % 1014,3 hPa 0,0 l/m 0 min 0 min 69 W/m 19,3 km/h (3 Bft) 97,83 %
09.04.2022 19:02 8,8 C 8,3 C 4,4 C 57 % 1014,3 hPa 0,0 l/m 0 min 0 min 67 W/m 9,7 km/h (2 Bft) 93,62 %
09.04.2022 19:04 8,8 C 8,3 C 4,4 C 58 % 1014,4 hPa 0,0 l/m 0 min 0 min 65 W/m 22,5 km/h (4 Bft) 95,12 %
09.04.2022 19:06 8,8 C 8,3 C 4,4 C 58 % 1014,4 hPa 0,0 l/m 0 min 0 min 65 W/m 16,1 km/h (3 Bft) 93,62 %
09.04.2022 19:08 8,8 C 8,3 C 4,4 C 58 % 1014,4 hPa 0,0 l/m 0 min 0 min 67 W/m 19,3 km/h (3 Bft) 91,49 %
09.04.2022 19:10 8,7 C 8,3 C 4,4 C 58 % 1014,4 hPa 0,0 l/m 0 min 0 min 70 W/m 25,7 km/h (4 Bft) 95,74 %
09.04.2022 19:12 8,7 C 8,3 C 4,4 C 58 % 1014,5 hPa 0,0 l/m 0 min 0 min 70 W/m 22,5 km/h (4 Bft) 95,74 %
09.04.2022 19:14 8,7 C 8,3 C 4,4 C 58 % 1014,6 hPa 0,0 l/m 0 min 0 min 67 W/m 22,5 km/h (4 Bft) 95,65 %
09.04.2022 19:16 8,7 C 8,3 C 4,4 C 58 % 1014,5 hPa 0,0 l/m 0 min 0 min 60 W/m 16,1 km/h (3 Bft) 96,23 %
09.04.2022 19:18 8,7 C 7,8 C 4,4 C 59 % 1014,5 hPa 0,0 l/m 0 min 0 min 51 W/m 16,1 km/h (3 Bft) 93,62 %
09.04.2022 19:20 8,6 C 7,8 C 4,4 C 59 % 1014,6 hPa 0,0 l/m 0 min 0 min 43 W/m 19,3 km/h (3 Bft) 95,74 %
09.04.2022 19:22 8,6 C 7,8 C 4,4 C 58 % 1014,5 hPa 0,0 l/m 0 min 0 min 37 W/m 19,3 km/h (3 Bft) 95,74 %
09.04.2022 19:24 8,6 C 7,8 C 4,4 C 59 % 1014,6 hPa 0,0 l/m 0 min 0 min 35 W/m 29,0 km/h (5 Bft) 97,83 %
09.04.2022 19:26 8,6 C 7,8 C 4,4 C 59 % 1014,5 hPa 0,0 l/m 0 min 0 min 38 W/m 12,9 km/h (3 Bft) 100,00 %
09.04.2022 19:28 8,6 C 7,8 C 4,4 C 59 % 1014,6 hPa 0,0 l/m 0 min 0 min 39 W/m 12,9 km/h (3 Bft) 93,62 %
09.04.2022 19:30 8,5 C 7,8 C 4,4 C 59 % 1014,6 hPa 0,0 l/m 0 min 0 min 38 W/m 19,3 km/h (3 Bft) 95,74 %
09.04.2022 19:32 8,4 C 7,8 C 4,4 C 59 % 1014,6 hPa 0,0 l/m 0 min 0 min 37 W/m 16,1 km/h (3 Bft) 98,11 %
09.04.2022 19:34 8,4 C 7,8 C 4,4 C 59 % 1014,6 hPa 0,0 l/m 0 min 0 min 35 W/m 12,9 km/h (3 Bft) 97,87 %
09.04.2022 19:36 8,4 C 7,8 C 3,9 C 59 % 1014,6 hPa 0,0 l/m 0 min 0 min 34 W/m 16,1 km/h (3 Bft) 97,83 %
09.04.2022 19:38 8,3 C 7,8 C 3,9 C 59 % 1014,7 hPa 0,0 l/m 0 min 0 min 33 W/m 12,9 km/h (3 Bft) 100,00 %
09.04.2022 19:40 8,3 C 7,8 C 3,9 C 60 % 1014,7 hPa 0,0 l/m 0 min 0 min 31 W/m 12,9 km/h (3 Bft) 100,00 %
09.04.2022 19:42 8,3 C 7,8 C 3,9 C 60 % 1014,7 hPa 0,0 l/m 0 min 0 min 29 W/m 12,9 km/h (3 Bft) 100,00 %
09.04.2022 19:44 8,3 C 7,8 C 3,9 C 60 % 1014,8 hPa 0,0 l/m 0 min 0 min 26 W/m 16,1 km/h (3 Bft) 98,31 %
09.04.2022 19:46 8,2 C 7,2 C 3,9 C 60 % 1014,7 hPa 0,0 l/m 0 min 0 min 24 W/m 9,7 km/h (2 Bft) 97,14 %
09.04.2022 19:48 8,2 C 7,2 C 3,9 C 61 % 1014,7 hPa 0,0 l/m 0 min 0 min 21 W/m 6,4 km/h (2 Bft) 100,00 %
09.04.2022 19:50 8,2 C 7,2 C 3,9 C 61 % 1014,7 hPa 0,0 l/m 0 min 0 min 19 W/m 16,1 km/h (3 Bft) 100,00 %
09.04.2022 19:52 8,2 C 7,2 C 3,9 C 61 % 1014,8 hPa 0,0 l/m 0 min 0 min 19 W/m 9,7 km/h (2 Bft) 100,00 %
09.04.2022 19:54 8,1 C 7,2 C 3,9 C 61 % 1014,8 hPa 0,0 l/m 0 min 0 min 19 W/m 16,1 km/h (3 Bft) 97,87 %
09.04.2022 19:56 8,1 C 7,2 C 3,9 C 59 % 1014,8 hPa 0,0 l/m 0 min 0 min 19 W/m 25,7 km/h (4 Bft) 100,00 %
09.04.2022 19:58 8,1 C 7,2 C 3,9 C 60 % 1014,8 hPa 0,0 l/m 0 min 0 min 16 W/m 16,1 km/h (3 Bft) 97,87 %
09.04.2022 20:00 8,1 C 7,2 C 3,9 C 60 % 1014,8 hPa 0,0 l/m 0 min 0 min 11 W/m 22,5 km/h (4 Bft) 98,28 %
09.04.2022 20:02 8,1 C 7,2 C 3,9 C 59 % 1014,8 hPa 0,0 l/m 0 min 0 min 10 W/m 22,5 km/h (4 Bft) 97,87 %
09.04.2022 20:04 8,1 C 7,2 C 3,9 C 60 % 1014,9 hPa 0,0 l/m 0 min 0 min 9 W/m 12,9 km/h (3 Bft) 97,14 %
09.04.2022 20:06 8,1 C 7,2 C 3,9 C 60 % 1015,0 hPa 0,0 l/m 0 min 0 min 10 W/m 25,7 km/h (4 Bft) 98,31 %
09.04.2022 20:08 8,1 C 7,2 C 3,9 C 62 % 1015,1 hPa 0,0 l/m 0 min 0 min 8 W/m 25,7 km/h (4 Bft) 93,62 %
09.04.2022 20:10 7,9 C 6,7 C 3,3 C 65 % 1015,1 hPa 0,0 l/m 0 min 0 min 7 W/m 41,8 km/h (6 Bft) 97,83 %
09.04.2022 20:12 7,7 C 6,7 C 3,3 C 67 % 1015,3 hPa 0,0 l/m 0 min 0 min 5 W/m 38,6 km/h (5 Bft) 100,00 %
09.04.2022 20:14 7,6 C 6,7 C 3,3 C 69 % 1015,4 hPa 0,0 l/m 0 min 0 min 1 W/m 38,6 km/h (5 Bft) 97,87 %
09.04.2022 20:16 7,4 C 6,1 C 2,8 C 70 % 1015,6 hPa 0,0 l/m 0 min 0 min 0 W/m 32,2 km/h (5 Bft) 94,92 %
09.04.2022 20:18 7,2 C 6,1 C 2,8 C 71 % 1015,6 hPa 0,0 l/m 0 min 0 min 0 W/m 32,2 km/h (5 Bft) 97,14 %
09.04.2022 20:20 6,9 C 5,6 C 2,2 C 73 % 1015,6 hPa 0,0 l/m 0 min 0 min 0 W/m 35,4 km/h (5 Bft) 98,31 %
09.04.2022 20:22 6,7 C 5,6 C 2,2 C 74 % 1015,7 hPa 0,0 l/m 0 min 0 min 0 W/m 32,2 km/h (5 Bft) 97,14 %
09.04.2022 20:24 6,5 C 5,6 C 2,2 C 75 % 1015,7 hPa 0,0 l/m 0 min 0 min 0 W/m 25,7 km/h (4 Bft) 98,28 %
09.04.2022 20:26 6,4 C 5,6 C 1,7 C 76 % 1015,8 hPa 0,0 l/m 0 min 0 min 0 W/m 25,7 km/h (4 Bft) 97,87 %
09.04.2022 20:28 6,3 C 5,0 C 1,7 C 76 % 1015,7 hPa 0,0 l/m 0 min 0 min 0 W/m 19,3 km/h (3 Bft) 97,14 %
09.04.2022 20:30 6,2 C 5,0 C 1,7 C 77 % 1015,7 hPa 0,0 l/m 0 min 0 min 0 W/m 25,7 km/h (4 Bft) 98,31 %
09.04.2022 20:32 6,1 C 5,0 C 1,7 C 77 % 1015,7 hPa 0,0 l/m 0 min 0 min 0 W/m 19,3 km/h (3 Bft) 97,83 %
09.04.2022 20:34 6,0 C 5,0 C 1,7 C 77 % 1015,8 hPa 0,0 l/m 0 min 0 min 0 W/m 19,3 km/h (3 Bft) 97,22 %
09.04.2022 20:36 5,9 C 5,0 C 1,7 C 78 % 1015,7 hPa 0,0 l/m 0 min 0 min 0 W/m 16,1 km/h (3 Bft) 98,28 %
09.04.2022 20:38 5,9 C 5,0 C 1,7 C 78 % 1015,7 hPa 0,0 l/m 0 min 0 min 0 W/m 19,3 km/h (3 Bft) 97,87 %
09.04.2022 20:40 5,8 C 5,0 C 1,7 C 78 % 1015,7 hPa 0,0 l/m 0 min 0 min 0 W/m 16,1 km/h (3 Bft) 97,14 %
09.04.2022 20:42 5,8 C 5,0 C 1,7 C 78 % 1015,7 hPa 0,0 l/m 0 min 0 min 0 W/m 9,7 km/h (2 Bft) 100,00 %
09.04.2022 20:44 5,7 C 5,0 C 1,7 C 79 % 1015,8 hPa 0,0 l/m 0 min 0 min 0 W/m 19,3 km/h (3 Bft) 100,00 %
09.04.2022 20:46 5,7 C 5,0 C 1,7 C 79 % 1015,7 hPa 0,0 l/m 0 min 0 min 0 W/m 19,3 km/h (3 Bft) 97,87 %
09.04.2022 20:48 5,6 C 5,0 C 1,7 C 79 % 1015,8 hPa 0,0 l/m 0 min 0 min 0 W/m 16,1 km/h (3 Bft) 100,00 %
09.04.2022 20:50 5,6 C 5,0 C 1,7 C 79 % 1015,8 hPa 0,0 l/m 0 min 0 min 0 W/m 16,1 km/h (3 Bft) 97,87 %
09.04.2022 20:52 5,5 C 5,0 C 1,7 C 79 % 1015,9 hPa 0,0 l/m 0 min 0 min 0 W/m 12,9 km/h (3 Bft) 100,00 %
09.04.2022 20:54 5,5 C 4,4 C 1,7 C 79 % 1015,9 hPa 0,0 l/m 0 min 0 min 0 W/m 9,7 km/h (2 Bft) 100,00 %
09.04.2022 20:56 5,4 C 4,4 C 1,1 C 79 % 1016,0 hPa 0,0 l/m 0 min 0 min 0 W/m 9,7 km/h (2 Bft) 95,74 %
09.04.2022 20:58 5,4 C 4,4 C 1,1 C 79 % 1016,0 hPa 0,0 l/m 0 min 0 min 0 W/m 12,9 km/h (3 Bft) 96,55 %
09.04.2022 21:00 5,3 C 4,4 C 1,1 C 79 % 1016,0 hPa 0,0 l/m 0 min 0 min 0 W/m 12,9 km/h (3 Bft) 97,14 %
09.04.2022 21:02 5,3 C 4,4 C 1,1 C 79 % 1016,0 hPa 0,0 l/m 0 min 0 min 0 W/m 12,9 km/h (3 Bft) 98,31 %
09.04.2022 21:04 5,2 C 4,4 C 1,1 C 79 % 1016,1 hPa 0,0 l/m 0 min 0 min 0 W/m 12,9 km/h (3 Bft) 97,14 %
09.04.2022 21:06 5,2 C 4,4 C 1,1 C 79 % 1016,1 hPa 0,0 l/m 0 min 0 min 0 W/m 9,7 km/h (2 Bft) 98,28 %
09.04.2022 21:08 5,2 C 4,4 C 1,1 C 79 % 1016,1 hPa 0,0 l/m 0 min 0 min 0 W/m 9,7 km/h (2 Bft) 89,36 %
09.04.2022 21:10 5,1 C 4,4 C 1,1 C 80 % 1016,1 hPa 0,0 l/m 0 min 0 min 0 W/m 16,1 km/h (3 Bft) 51,43 %
09.04.2022 21:12 5,1 C 3,9 C 1,1 C 80 % 1016,1 hPa 0,0 l/m 0 min 0 min 0 W/m 6,4 km/h (2 Bft) 97,87 %
09.04.2022 21:14 5,1 C 3,9 C 1,1 C 80 % 1016,2 hPa 0,0 l/m 0 min 0 min 0 W/m 9,7 km/h (2 Bft) 98,31 %
09.04.2022 21:16 5,0 C 4,4 C 1,1 C 80 % 1016,2 hPa 0,0 l/m 0 min 0 min 0 W/m 9,7 km/h (2 Bft) 100,00 %
09.04.2022 21:18 5,0 C 3,9 C 1,1 C 80 % 1016,2 hPa 0,0 l/m 0 min 0 min 0 W/m 9,7 km/h (2 Bft) 97,87 %
09.04.2022 21:20 4,9 C 3,9 C 1,1 C 80 % 1016,3 hPa 0,0 l/m 0 min 0 min 0 W/m 12,9 km/h (3 Bft) 97,83 %
09.04.2022 21:22 4,9 C 3,9 C 1,1 C 80 % 1016,3 hPa 0,0 l/m 0 min 0 min 0 W/m 16,1 km/h (3 Bft) 97,87 %
09.04.2022 21:24 4,8 C 3,9 C 0,6 C 80 % 1016,3 hPa 0,0 l/m 0 min 0 min 0 W/m 9,7 km/h (2 Bft) 100,00 %
09.04.2022 21:26 4,8 C 3,9 C 0,6 C 80 % 1016,3 hPa 0,0 l/m 0 min 0 min 0 W/m 9,7 km/h (2 Bft) 100,00 %
09.04.2022 21:28 4,7 C 3,9 C 0,6 C 80 % 1016,3 hPa 0,0 l/m 0 min 0 min 0 W/m 6,4 km/h (2 Bft) 100,00 %
09.04.2022 21:30 4,7 C 3,9 C 0,6 C 80 % 1016,4 hPa 0,0 l/m 0 min 0 min 0 W/m 6,4 km/h (2 Bft) 100,00 %
09.04.2022 21:32 4,6 C 3,9 C 0,6 C 80 % 1016,4 hPa 0,0 l/m 0 min 0 min 0 W/m 9,7 km/h (2 Bft) 98,00 %
09.04.2022 21:34 4,6 C 3,9 C 0,6 C 81 % 1016,4 hPa 0,0 l/m 0 min 0 min 0 W/m 12,9 km/h (3 Bft) 100,00 %
09.04.2022 21:36 4,6 C 3,9 C 0,6 C 81 % 1016,4 hPa 0,0 l/m 0 min 0 min 0 W/m 6,4 km/h (2 Bft) 100,00 %
09.04.2022 21:38 4,6 C 3,9 C 0,6 C 81 % 1016,4 hPa 0,0 l/m 0 min 0 min 0 W/m 6,4 km/h (2 Bft) 100,00 %
09.04.2022 21:40 4,6 C 3,9 C 0,6 C 81 % 1016,4 hPa 0,0 l/m 0 min 0 min 0 W/m 6,4 km/h (2 Bft) 100,00 %
09.04.2022 21:42 4,5 C 3,9 C 0,6 C 81 % 1016,4 hPa 0,0 l/m 0 min 0 min 0 W/m 9,7 km/h (2 Bft) 100,00 %
09.04.2022 21:44 4,5 C 3,9 C 0,6 C 81 % 1016,4 hPa 0,0 l/m 0 min 0 min 0 W/m 12,9 km/h (3 Bft) 97,83 %
09.04.2022 21:46 4,5 C 3,9 C 0,6 C 81 % 1016,5 hPa 0,0 l/m 0 min 0 min 0 W/m 6,4 km/h (2 Bft) 97,87 %
09.04.2022 21:48 4,5 C 3,9 C 0,6 C 81 % 1016,5 hPa 0,0 l/m 0 min 0 min 0 W/m 16,1 km/h (3 Bft) 97,87 %
09.04.2022 21:50 4,5 C 3,9 C 0,6 C 81 % 1016,5 hPa 0,0 l/m 0 min 0 min 0 W/m 6,4 km/h (2 Bft) 97,87 %
09.04.2022 21:52 4,4 C 3,9 C 0,6 C 81 % 1016,5 hPa 0,0 l/m 0 min 0 min 0 W/m 9,7 km/h (2 Bft) 97,87 %
09.04.2022 21:54 4,4 C 3,9 C 0,6 C 81 % 1016,6 hPa 0,0 l/m 0 min 0 min 0 W/m 6,4 km/h (2 Bft) 97,87 %
09.04.2022 21:56 4,4 C 3,9 C 0,6 C 81 % 1016,6 hPa 0,0 l/m 0 min 0 min 0 W/m 3,2 km/h (1 Bft) 97,83 %
09.04.2022 21:58 4,4 C 3,9 C 0,6 C 81 % 1016,6 hPa 0,0 l/m 0 min 0 min 0 W/m 3,2 km/h (1 Bft) 97,87 %
09.04.2022 22:00 4,5 C 3,9 C 0,6 C 81 % 1016,6 hPa 0,0 l/m 0 min 0 min 0 W/m 3,2 km/h (1 Bft) 95,74 %
09.04.2022 22:02 4,4 C 3,9 C 0,6 C 81 % 1016,6 hPa 0,0 l/m 0 min 0 min 0 W/m 9,7 km/h (2 Bft) 97,87 %
09.04.2022 22:04 4,5 C 3,9 C 0,6 C 81 % 1016,7 hPa 0,0 l/m 0 min 0 min 0 W/m 6,4 km/h (2 Bft) 97,87 %
09.04.2022 22:06 4,5 C 3,9 C 0,6 C 81 % 1016,7 hPa 0,0 l/m 0 min 0 min 0 W/m 6,4 km/h (2 Bft) 97,83 %
09.04.2022 22:08 4,5 C 3,9 C 0,6 C 80 % 1016,7 hPa 0,0 l/m 0 min 0 min 0 W/m 6,4 km/h (2 Bft) 52,38 %
09.04.2022 22:10 4,5 C 3,9 C 0,6 C 81 % 1016,7 hPa 0,0 l/m 0 min 0 min 0 W/m 12,9 km/h (3 Bft) 97,87 %
09.04.2022 22:12 4,5 C 3,9 C 0,6 C 81 % 1016,7 hPa 0,0 l/m 0 min 0 min 0 W/m 6,4 km/h (2 Bft) 95,74 %
09.04.2022 22:14 4,5 C 3,9 C 0,6 C 81 % 1016,7 hPa 0,0 l/m 0 min 0 min 0 W/m 12,9 km/h (3 Bft) 95,74 %
09.04.2022 22:16 4,4 C 3,9 C 0,6 C 81 % 1016,7 hPa 0,0 l/m 0 min 0 min 0 W/m 6,4 km/h (2 Bft) 97,87 %
09.04.2022 22:18 4,4 C 3,9 C 0,6 C 81 % 1016,8 hPa 0,0 l/m 0 min 0 min 0 W/m 6,4 km/h (2 Bft) 95,65 %
09.04.2022 22:20 4,4 C 3,9 C 0,6 C 81 % 1016,8 hPa 0,0 l/m 0 min 0 min 0 W/m 12,9 km/h (3 Bft) 97,87 %
09.04.2022 22:22 4,4 C 3,9 C 0,6 C 81 % 1016,8 hPa 0,0 l/m 0 min 0 min 0 W/m 6,4 km/h (2 Bft) 95,74 %
09.04.2022 22:24 4,4 C 3,9 C 0,6 C 81 % 1016,8 hPa 0,0 l/m 0 min 0 min 0 W/m 12,9 km/h (3 Bft) 95,74 %
09.04.2022 22:26 4,4 C 3,3 C 0,6 C 81 % 1016,8 hPa 0,0 l/m 0 min 0 min 0 W/m 9,7 km/h (2 Bft) 93,62 %
09.04.2022 22:28 4,4 C 3,3 C 0,6 C 81 % 1016,8 hPa 0,0 l/m 0 min 0 min 0 W/m 6,4 km/h (2 Bft) 91,49 %
09.04.2022 22:30 4,3 C 3,3 C 0,6 C 81 % 1016,9 hPa 0,0 l/m 0 min 0 min 0 W/m 6,4 km/h (2 Bft) 95,65 %
09.04.2022 22:32 4,3 C 3,3 C 0,6 C 81 % 1016,9 hPa 0,0 l/m 0 min 0 min 0 W/m 6,4 km/h (2 Bft) 91,49 %
09.04.2022 22:34 4,3 C 3,3 C 0,6 C 81 % 1016,9 hPa 0,0 l/m 0 min 0 min 0 W/m 6,4 km/h (2 Bft) 91,49 %
09.04.2022 22:36 4,3 C 3,3 C 0,6 C 81 % 1016,9 hPa 0,0 l/m 0 min 0 min 0 W/m 6,4 km/h (2 Bft) 91,49 %
09.04.2022 22:38 4,3 C 3,3 C 0,0 C 81 % 1016,9 hPa 0,0 l/m 0 min 0 min 0 W/m 6,4 km/h (2 Bft) 93,62 %
09.04.2022 22:40 4,3 C 3,3 C 0,0 C 81 % 1017,0 hPa 0,0 l/m 0 min 0 min 0 W/m 9,7 km/h (2 Bft) 93,62 %
09.04.2022 22:42 4,2 C 3,3 C 0,0 C 81 % 1017,0 hPa 0,0 l/m 0 min 0 min 0 W/m 12,9 km/h (3 Bft) 95,65 %
09.04.2022 22:44 4,2 C 3,3 C 0,0 C 81 % 1017,0 hPa 0,0 l/m 0 min 0 min 0 W/m 6,4 km/h (2 Bft) 93,62 %
09.04.2022 22:46 4,2 C 3,3 C 0,6 C 82 % 1017,0 hPa 0,0 l/m 0 min 0 min 0 W/m 12,9 km/h (3 Bft) 93,62 %
09.04.2022 22:48 4,2 C 3,3 C 0,6 C 82 % 1017,0 hPa 0,0 l/m 0 min 0 min 0 W/m 9,7 km/h (2 Bft) 95,74 %
09.04.2022 22:50 4,1 C 3,3 C 0,6 C 82 % 1017,0 hPa 0,0 l/m 0 min 0 min 0 W/m 9,7 km/h (2 Bft) 95,74 %
09.04.2022 22:52 4,1 C 3,3 C 0,0 C 82 % 1017,0 hPa 0,0 l/m 0 min 0 min 0 W/m 9,7 km/h (2 Bft) 95,74 %
09.04.2022 22:54 4,1 C 3,3 C 0,0 C 82 % 1017,1 hPa 0,0 l/m 0 min 0 min 0 W/m 9,7 km/h (2 Bft) 93,48 %
09.04.2022 22:56 4,1 C 3,3 C 0,0 C 82 % 1017,1 hPa 0,0 l/m 0 min 0 min 0 W/m 9,7 km/h (2 Bft) 95,74 %
09.04.2022 22:58 4,0 C 3,3 C 0,0 C 82 % 1017,1 hPa 0,0 l/m 0 min 0 min 0 W/m 6,4 km/h (2 Bft) 91,49 %
09.04.2022 23:00 4,0 C 3,3 C 0,0 C 82 % 1017,2 hPa 0,0 l/m 0 min 0 min 0 W/m 16,1 km/h (3 Bft) 95,74 %
09.04.2022 23:02 4,0 C 3,3 C 0,0 C 82 % 1017,3 hPa 0,0 l/m 0 min 0 min 0 W/m 9,7 km/h (2 Bft) 97,87 %
09.04.2022 23:04 3,9 C 3,3 C 0,0 C 82 % 1017,2 hPa 0,0 l/m 0 min 0 min 0 W/m 12,9 km/h (3 Bft) 95,65 %
09.04.2022 23:06 4,0 C 3,3 C 0,6 C 82 % 1017,3 hPa 0,0 l/m 0 min 0 min 0 W/m 12,9 km/h (3 Bft) 100,00 %
09.04.2022 23:08 4,0 C 3,3 C 0,6 C 83 % 1017,3 hPa 0,0 l/m 0 min 0 min 0 W/m 9,7 km/h (2 Bft) 97,87 %
09.04.2022 23:10 4,0 C 3,3 C 0,6 C 83 % 1017,3 hPa 0,0 l/m 0 min 0 min 0 W/m 9,7 km/h (2 Bft) 100,00 %
09.04.2022 23:12 4,0 C 3,3 C 0,6 C 83 % 1017,3 hPa 0,0 l/m 0 min 0 min 0 W/m 6,4 km/h (2 Bft) 100,00 %
09.04.2022 23:14 4,1 C 3,3 C 0,6 C 83 % 1017,3 hPa 0,0 l/m 0 min 0 min 0 W/m 9,7 km/h (2 Bft) 100,00 %
09.04.2022 23:16 4,1 C 3,3 C 0,6 C 83 % 1017,3 hPa 0,0 l/m 0 min 0 min 0 W/m 6,4 km/h (2 Bft) 100,00 %
09.04.2022 23:18 4,1 C 3,3 C 0,6 C 83 % 1017,3 hPa 0,0 l/m 0 min 0 min 0 W/m 9,7 km/h (2 Bft) 100,00 %
09.04.2022 23:20 4,1 C 3,3 C 0,6 C 83 % 1017,4 hPa 0,0 l/m 0 min 0 min 0 W/m 6,4 km/h (2 Bft) 100,00 %
09.04.2022 23:22 4,1 C 3,3 C 0,6 C 83 % 1017,4 hPa 0,0 l/m 0 min 0 min 0 W/m 6,4 km/h (2 Bft) 100,00 %
09.04.2022 23:24 4,1 C 3,3 C 0,6 C 83 % 1017,4 hPa 0,0 l/m 0 min 0 min 0 W/m 6,4 km/h (2 Bft) 100,00 %
09.04.2022 23:26 4,1 C 3,3 C 0,6 C 83 % 1017,5 hPa 0,0 l/m 0 min 0 min 0 W/m 6,4 km/h (2 Bft) 100,00 %
09.04.2022 23:28 4,1 C 3,3 C 0,6 C 83 % 1017,4 hPa 0,0 l/m 0 min 0 min 0 W/m 6,4 km/h (2 Bft) 100,00 %
09.04.2022 23:30 4,1 C 3,3 C 0,6 C 83 % 1017,4 hPa 0,0 l/m 0 min 0 min 0 W/m 6,4 km/h (2 Bft) 100,00 %
09.04.2022 23:32 4,1 C 3,3 C 0,6 C 82 % 1017,4 hPa 0,0 l/m 0 min 0 min 0 W/m 6,4 km/h (2 Bft) 100,00 %
09.04.2022 23:34 4,1 C 3,3 C 0,0 C 82 % 1017,4 hPa 0,0 l/m 0 min 0 min 0 W/m 6,4 km/h (2 Bft) 100,00 %
09.04.2022 23:36 4,1 C 3,3 C 0,0 C 83 % 1017,5 hPa 0,0 l/m 0 min 0 min 0 W/m 6,4 km/h (2 Bft) 100,00 %
09.04.2022 23:38 4,1 C 3,3 C 0,0 C 82 % 1017,5 hPa 0,0 l/m 0 min 0 min 0 W/m 6,4 km/h (2 Bft) 100,00 %
09.04.2022 23:40 4,0 C 3,3 C 0,0 C 82 % 1017,4 hPa 0,0 l/m 0 min 0 min 0 W/m 9,7 km/h (2 Bft) 97,83 %
09.04.2022 23:42 4,0 C 3,3 C 0,0 C 82 % 1017,5 hPa 0,0 l/m 0 min 0 min 0 W/m 6,4 km/h (2 Bft) 100,00 %
09.04.2022 23:44 4,0 C 3,3 C 0,0 C 83 % 1017,5 hPa 0,0 l/m 0 min 0 min 0 W/m 6,4 km/h (2 Bft) 100,00 %
09.04.2022 23:46 3,9 C 3,3 C 0,0 C 83 % 1017,5 hPa 0,0 l/m 0 min 0 min 0 W/m 6,4 km/h (2 Bft) 100,00 %
09.04.2022 23:48 3,9 C 3,3 C 0,0 C 83 % 1017,5 hPa 0,0 l/m 0 min 0 min 0 W/m 6,4 km/h (2 Bft) 100,00 %
09.04.2022 23:50 3,9 C 3,3 C 0,0 C 83 % 1017,6 hPa 0,0 l/m 0 min 0 min 0 W/m 6,4 km/h (2 Bft) 97,87 %
09.04.2022 23:52 3,9 C 3,3 C 0,0 C 83 % 1017,5 hPa 0,0 l/m 0 min 0 min 0 W/m 6,4 km/h (2 Bft) 100,00 %
09.04.2022 23:54 3,9 C 3,3 C 0,0 C 83 % 1017,6 hPa 0,0 l/m 0 min 0 min 0 W/m 9,7 km/h (2 Bft) 100,00 %
09.04.2022 23:56 3,8 C 3,3 C 0,0 C 83 % 1017,6 hPa 0,0 l/m 0 min 0 min 0 W/m 6,4 km/h (2 Bft) 100,00 %
09.04.2022 23:58 3,8 C 3,3 C 0,0 C 83 % 1017,7 hPa 0,0 l/m 0 min 0 min 0 W/m 6,4 km/h (2 Bft) 100,00 %
_ Min-Zeit 04:36 03:48 02:22 15:44 00:00 - - - - 00:48 06:41
Minimum _ 3,4 C 2,8 C 0,0 C 50 % 1001,1 hPa - - - - 3,2 km/h (1 Bft) 9,09 %
_ Max-Zeit 15:38 14:18 12:08 04:16 23:58 12:20 12:08 10:02 13:52 12:14 00:00
Maximum _ 11,8 C 16,1 C 8,9 C 90 % 1017,7 hPa 0,2 l/m 4 min 2 min 997 W/m 48,3 km/h
NO (6 Bft)
100,00 %
Durchschnitt _ 6,3 C 6,6 C 2,8 C 77 % 1010,9 hPa #1,0 l/m #6:08 h #48 min. 316 W/m 17,2 km/h (3 Bft) 96,93 %
© 2022 W. Hausmann